Observation data for Sierra Blanca on 02/24/2021      Previous  Date  Next       Current Mesonet Observations  Soil Data  Daily Summary Page  Observations in Plain Language
KSB1 240600Z 28002KT 16/M15 A3008 RMK A01 T01631154  RH  010%=      5-min Rain = 0
KSB1 240601Z 29002KT 16/M15 A3008 RMK A01 T01641152  RH  010%=      5-min Rain = 0
KSB1 240602Z 29003KT 15/M13 A3008 RMK A01 T01531133  RH  013%=      5-min Rain = 0
KSB1 240603Z 30003KT 13/M14 A3008 RMK A01 T01311136  RH  014%=      5-min Rain = 0
KSB1 240604Z 28003KT 13/M14 A3008 RMK A01 T01281143  RH  014%=      5-min Rain = 0
KSB1 240605Z 27003KT 14/M15 A3008 RMK A01 T01361147  RH  013%=      5-min Rain = 0
KSB1 240606Z 27003KT 15/M15 A3007 RMK A01 T01451147  RH  012%=      5-min Rain = 0
KSB1 240607Z 30003KT 15/M15 A3008 RMK A01 T01501147  RH  011%=      5-min Rain = 0
KSB1 240608Z 28002KT 16/M15 A3007 RMK A01 T01551149  RH  011%=      5-min Rain = 0
KSB1 240609Z 29003KT 16/M15 A3008 RMK A01 T01581150  RH  011%=      5-min Rain = 0
KSB1 240610Z 30003KT 16/M15 A3008 RMK A01 T01601150  RH  011%=      5-min Rain = 0
KSB1 240611Z 30003KT 16/M15 A3008 RMK A01 T01621150  RH  010%=      5-min Rain = 0
KSB1 240612Z 30003KT 16/M15 A3008 RMK A01 T01641150  RH  010%=      5-min Rain = 0
KSB1 240613Z 32004KT 17/M15 A3008 RMK A01 T01651149  RH  010%=      5-min Rain = 0
KSB1 240614Z 32003KT 16/M15 A3008 RMK A01 T01641149  RH  010%=      5-min Rain = 0
KSB1 240615Z 31003KT 17/M15 A3008 RMK A01 T01651150  RH  010%=      5-min Rain = 0
KSB1 240616Z 31004KT 17/M15 A3008 RMK A01 T01671151  RH  010%=      5-min Rain = 0
KSB1 240617Z 32003KT 17/M15 A3008 RMK A01 T01671150  RH  010%=      5-min Rain = 0
KSB1 240618Z 33003KT 17/M15 A3008 RMK A01 T01661149  RH  010%=      5-min Rain = 0
KSB1 240619Z 32003KT 17/M15 A3008 RMK A01 T01651149  RH  010%=      5-min Rain = 0
KSB1 240620Z 32002KT 16/M15 A3008 RMK A01 T01641150  RH  010%=      5-min Rain = 0
KSB1 240621Z 31003KT 17/M15 A3008 RMK A01 T01651150  RH  010%=      5-min Rain = 0
KSB1 240622Z 31004KT 17/M15 A3008 RMK A01 T01651150  RH  010%=      5-min Rain = 0
KSB1 240623Z 31004KT 17/M15 A3008 RMK A01 T01661149  RH  010%=      5-min Rain = 0
KSB1 240624Z 30005KT 17/M15 A3008 RMK A01 T01661148  RH  010%=      5-min Rain = 0
KSB1 240625Z 30005KT 16/M15 A3008 RMK A01 T01631148  RH  011%=      5-min Rain = 0
KSB1 240626Z 31005KT 16/M15 A3008 RMK A01 T01631148  RH  011%=      5-min Rain = 0
KSB1 240627Z 30006KT 16/M15 A3008 RMK A01 T01631147  RH  011%=      5-min Rain = 0
KSB1 240628Z 30006KT 16/M15 A3008 RMK A01 T01621146  RH  011%=      5-min Rain = 0
KSB1 240629Z 30005KT 16/M15 A3008 RMK A01 T01601146  RH  011%=      5-min Rain = 0
KSB1 240630Z 30005KT 16/M15 A3008 RMK A01 T01601146  RH  011%=      5-min Rain = 0
KSB1 240631Z 30005KT 16/M15 A3008 RMK A01 T01591146  RH  011%=      5-min Rain = 0
KSB1 240632Z 31005KT 16/M15 A3008 RMK A01 T01591147  RH  011%=      5-min Rain = 0
KSB1 240633Z 31005KT 16/M15 A3008 RMK A01 T01591145  RH  011%=      5-min Rain = 0
KSB1 240634Z 31006KT 16/M15 A3008 RMK A01 T01591145  RH  011%=      5-min Rain = 0
KSB1 240635Z 31006KT 16/M15 A3008 RMK A01 T01591145  RH  011%=      5-min Rain = 0
KSB1 240636Z 31006KT 16/M15 A3008 RMK A01 T01591146  RH  011%=      5-min Rain = 0
KSB1 240637Z 31006KT 16/M15 A3008 RMK A01 T01591146  RH  011%=      5-min Rain = 0
KSB1 240638Z 31005KT 16/M15 A3008 RMK A01 T01591146  RH  011%=      5-min Rain = 0
KSB1 240639Z 31005KT 16/M15 A3008 RMK A01 T01591145  RH  011%=      5-min Rain = 0
KSB1 240640Z 31005KT 16/M15 A3008 RMK A01 T01591146  RH  011%=      5-min Rain = 0
KSB1 240641Z 31005KT 16/M15 A3008 RMK A01 T01581146  RH  011%=      5-min Rain = 0
KSB1 240642Z 31006KT 16/M15 A3008 RMK A01 T01571147  RH  011%=      5-min Rain = 0
KSB1 240643Z 31006KT 16/M15 A3008 RMK A01 T01571147  RH  011%=      5-min Rain = 0
KSB1 240644Z 32006KT 16/M15 A3008 RMK A01 T01571147  RH  011%=      5-min Rain = 0
KSB1 240645Z 33006KT 16/M15 A3008 RMK A01 T01561147  RH  011%=      5-min Rain = 0
KSB1 240646Z 32006KT 15/M15 A3008 RMK A01 T01541146  RH  011%=      5-min Rain = 0
KSB1 240647Z 33006KT 15/M15 A3008 RMK A01 T01541146  RH  011%=      5-min Rain = 0
KSB1 240648Z 33006KT 15/M15 A3008 RMK A01 T01531146  RH  011%=      5-min Rain = 0
KSB1 240649Z 32006KT 15/M15 A3008 RMK A01 T01521145  RH  012%=      5-min Rain = 0
KSB1 240650Z 32006KT 15/M15 A3008 RMK A01 T01501145  RH  012%=      5-min Rain = 0
KSB1 240651Z 33007KT 15/M15 A3008 RMK A01 T01501145  RH  012%=      5-min Rain = 0
KSB1 240652Z 32007KT 15/M15 A3008 RMK A01 T01491145  RH  012%=      5-min Rain = 0
KSB1 240653Z 32006KT 15/M14 A3008 RMK A01 T01481144  RH  012%=      5-min Rain = 0
KSB1 240654Z 32007KT 15/M14 A3008 RMK A01 T01481144  RH  012%=      5-min Rain = 0
KSB1 240655Z 32006KT 15/M14 A3008 RMK A01 T01491144  RH  012%=      5-min Rain = 0
KSB1 240656Z 32006KT 15/M15 A3008 RMK A01 T01491145  RH  012%=      5-min Rain = 0
KSB1 240657Z 31006KT 15/M15 A3008 RMK A01 T01491145  RH  012%=      5-min Rain = 0
KSB1 240658Z 31006KT 15/M15 A3008 RMK A01 T01491145  RH  012%=      5-min Rain = 0
KSB1 240659Z 31006KT 15/M15 A3008 RMK A01 T01491145  RH  012%=      5-min Rain = 0
KSB1 240700Z 31006KT 15/M15 A3008 RMK A01 T01491146  RH  012%=      5-min Rain = 0
KSB1 240701Z 31006KT 15/M15 A3008 RMK A01 T01511147  RH  011%=      5-min Rain = 0
KSB1 240702Z 31006KT 15/M15 A3008 RMK A01 T01521147  RH  011%=      5-min Rain = 0
KSB1 240703Z 31006KT 15/M15 A3008 RMK A01 T01531147  RH  011%=      5-min Rain = 0
KSB1 240704Z 31006KT 15/M15 A3008 RMK A01 T01531146  RH  011%=      5-min Rain = 0
KSB1 240705Z 31006KT 15/M15 A3008 RMK A01 T01541146  RH  011%=      5-min Rain = 0
KSB1 240706Z 31005KT 15/M15 A3008 RMK A01 T01531146  RH  011%=      5-min Rain = 0
KSB1 240707Z 30005KT 15/M15 A3008 RMK A01 T01531146  RH  011%=      5-min Rain = 0
KSB1 240708Z 30005KT 15/M15 A3008 RMK A01 T01531146  RH  011%=      5-min Rain = 0
KSB1 240709Z 30004KT 15/M15 A3008 RMK A01 T01531147  RH  011%=      5-min Rain = 0
KSB1 240710Z 30004KT 15/M15 A3008 RMK A01 T01541147  RH  011%=      5-min Rain = 0
KSB1 240711Z 30004KT 16/M15 A3008 RMK A01 T01551147  RH  011%=      5-min Rain = 0
KSB1 240712Z 31005KT 16/M15 A3008 RMK A01 T01561148  RH  011%=      5-min Rain = 0
KSB1 240713Z 30005KT 16/M15 A3008 RMK A01 T01561149  RH  011%=      5-min Rain = 0
KSB1 240714Z 30004KT 16/M15 A3008 RMK A01 T01571149  RH  011%=      5-min Rain = 0
KSB1 240715Z 30004KT 16/M15 A3008 RMK A01 T01581150  RH  011%=      5-min Rain = 0
KSB1 240716Z 31004KT 16/M15 A3008 RMK A01 T01581150  RH  011%=      5-min Rain = 0
KSB1 240717Z 30004KT 16/M15 A3008 RMK A01 T01581151  RH  011%=      5-min Rain = 0
KSB1 240718Z 31005KT 16/M15 A3008 RMK A01 T01591150  RH  011%=      5-min Rain = 0
KSB1 240719Z 32005KT 16/M15 A3008 RMK A01 T01591150  RH  011%=      5-min Rain = 0
KSB1 240720Z 32005KT 16/M15 A3008 RMK A01 T01581149  RH  011%=      5-min Rain = 0
KSB1 240721Z 32004KT 16/M15 A3008 RMK A01 T01561149  RH  011%=      5-min Rain = 0
KSB1 240722Z 32005KT 15/M15 A3008 RMK A01 T01541149  RH  011%=      5-min Rain = 0
KSB1 240723Z 32006KT 15/M15 A3008 RMK A01 T01531147  RH  011%=      5-min Rain = 0
KSB1 240724Z 33006KT 15/M15 A3008 RMK A01 T01511146  RH  011%=      5-min Rain = 0
KSB1 240725Z 33008KT 15/M15 A3008 RMK A01 T01501146  RH  012%=      5-min Rain = 0
KSB1 240726Z 33007KT 15/M15 A3008 RMK A01 T01481145  RH  012%=      5-min Rain = 0
KSB1 240727Z 33008KT 15/M14 A3008 RMK A01 T01481144  RH  012%=      5-min Rain = 0
KSB1 240728Z 32007KT 15/M14 A3008 RMK A01 T01471143  RH  012%=      5-min Rain = 0
KSB1 240729Z 33007KT 15/M14 A3008 RMK A01 T01461143  RH  012%=      5-min Rain = 0
KSB1 240730Z 32007KT 15/M14 A3008 RMK A01 T01451142  RH  012%=      5-min Rain = 0
KSB1 240731Z 32009KT 14/M14 A3008 RMK A01 T01441142  RH  012%=      5-min Rain = 0
KSB1 240732Z 33007KT 14/M14 A3008 RMK A01 T01441142  RH  012%=      5-min Rain = 0
KSB1 240733Z 33006KT 14/M14 A3008 RMK A01 T01441142  RH  012%=      5-min Rain = 0
KSB1 240734Z 33007KT 15/M14 A3008 RMK A01 T01451143  RH  012%=      5-min Rain = 0
KSB1 240735Z 32007KT 15/M14 A3008 RMK A01 T01451142  RH  012%=      5-min Rain = 0
KSB1 240736Z 33007KT 15/M14 A3008 RMK A01 T01451142  RH  012%=      5-min Rain = 0
KSB1 240737Z 32007KT 15/M14 A3008 RMK A01 T01451142  RH  012%=      5-min Rain = 0
KSB1 240738Z 33007KT 15/M14 A3008 RMK A01 T01451143  RH  012%=      5-min Rain = 0
KSB1 240739Z 32007KT 15/M14 A3008 RMK A01 T01451143  RH  012%=      5-min Rain = 0
KSB1 240740Z 33007KT 15/M14 A3008 RMK A01 T01451143  RH  012%=      5-min Rain = 0
KSB1 240741Z 33008KT 15/M14 A3008 RMK A01 T01461143  RH  012%=      5-min Rain = 0
KSB1 240742Z 33008KT 15/M14 A3008 RMK A01 T01461143  RH  012%=      5-min Rain = 0
KSB1 240743Z 33008KT 15/M14 A3008 RMK A01 T01461143  RH  012%=      5-min Rain = 0
KSB1 240744Z 33008KT 15/M14 A3008 RMK A01 T01451143  RH  012%=      5-min Rain = 0
KSB1 240745Z 33008KT 14/M14 A3008 RMK A01 T01441143  RH  012%=      5-min Rain = 0
KSB1 240746Z 33008KT 14/M14 A3008 RMK A01 T01441143  RH  012%=      5-min Rain = 0
KSB1 240747Z 32008KT 14/M14 A3008 RMK A01 T01441142  RH  012%=      5-min Rain = 0
KSB1 240748Z 32008KT 14/M14 A3008 RMK A01 T01441142  RH  012%=      5-min Rain = 0
KSB1 240749Z 33008KT 14/M14 A3008 RMK A01 T01441143  RH  012%=      5-min Rain = 0
KSB1 240750Z 33008KT 14/M14 A3008 RMK A01 T01441143  RH  012%=      5-min Rain = 0
KSB1 240751Z 32008KT 14/M14 A3008 RMK A01 T01441143  RH  012%=      5-min Rain = 0
KSB1 240752Z 33008KT 14/M14 A3008 RMK A01 T01421142  RH  013%=      5-min Rain = 0
KSB1 240753Z 33008KT 14/M14 A3008 RMK A01 T01411143  RH  013%=      5-min Rain = 0
KSB1 240754Z 32008KT 14/M14 A3008 RMK A01 T01411142  RH  013%=      5-min Rain = 0
KSB1 240755Z 33008KT 14/M14 A3008 RMK A01 T01411143  RH  013%=      5-min Rain = 0
KSB1 240756Z 33008KT 14/M14 A3008 RMK A01 T01411143  RH  013%=      5-min Rain = 0
KSB1 240757Z 33008KT 14/M14 A3008 RMK A01 T01421143  RH  013%=      5-min Rain = 0
KSB1 240758Z 33008KT 14/M14 A3008 RMK A01 T01421143  RH  013%=      5-min Rain = 0
KSB1 240759Z 33008KT 14/M14 A3008 RMK A01 T01421143  RH  013%=      5-min Rain = 0
KSB1 240800Z 33008KT 14/M14 A3008 RMK A01 T01421143  RH  013%=      5-min Rain = 0
KSB1 240801Z 33008KT 14/M14 A3008 RMK A01 T01421143  RH  013%=      5-min Rain = 0
KSB1 240802Z 33008KT 14/M14 A3008 RMK A01 T01421143  RH  013%=      5-min Rain = 0
KSB1 240803Z 33008KT 14/M14 A3008 RMK A01 T01411143  RH  013%=      5-min Rain = 0
KSB1 240804Z 33008KT 14/M14 A3008 RMK A01 T01411143  RH  013%=      5-min Rain = 0
KSB1 240805Z 33008KT 14/M14 A3008 RMK A01 T01411143  RH  013%=      5-min Rain = 0
KSB1 240806Z 33008KT 14/M14 A3008 RMK A01 T01401143  RH  013%=      5-min Rain = 0
KSB1 240807Z 33008KT 14/M14 A3008 RMK A01 T01401143  RH  013%=      5-min Rain = 0
KSB1 240808Z 33008KT 14/M14 A3008 RMK A01 T01391143  RH  013%=      5-min Rain = 0
KSB1 240809Z 33008KT 14/M14 A3008 RMK A01 T01381143  RH  013%=      5-min Rain = 0
KSB1 240810Z 32008KT 14/M14 A3008 RMK A01 T01381143  RH  013%=      5-min Rain = 0
KSB1 240811Z 32008KT 14/M14 A3008 RMK A01 T01381143  RH  013%=      5-min Rain = 0
KSB1 240812Z 32008KT 14/M14 A3008 RMK A01 T01381143  RH  013%=      5-min Rain = 0
KSB1 240813Z 32008KT 14/M14 A3008 RMK A01 T01381144  RH  013%=      5-min Rain = 0
KSB1 240814Z 32008KT 14/M14 A3008 RMK A01 T01391144  RH  013%=      5-min Rain = 0
KSB1 240815Z 32008KT 14/M14 A3008 RMK A01 T01401144  RH  013%=      5-min Rain = 0
KSB1 240816Z 32008KT 14/M14 A3008 RMK A01 T01401144  RH  013%=      5-min Rain = 0
KSB1 240817Z 32008KT 14/M14 A3008 RMK A01 T01401144  RH  013%=      5-min Rain = 0
KSB1 240818Z 32008KT 14/M14 A3008 RMK A01 T01391144  RH  013%=      5-min Rain = 0
KSB1 240819Z 32008KT 14/M14 A3008 RMK A01 T01391144  RH  013%=      5-min Rain = 0
KSB1 240820Z 32008KT 14/M14 A3008 RMK A01 T01391144  RH  013%=      5-min Rain = 0
KSB1 240821Z 32008KT 14/M14 A3008 RMK A01 T01391144  RH  013%=      5-min Rain = 0
KSB1 240822Z 32009KT 14/M14 A3008 RMK A01 T01391143  RH  013%=      5-min Rain = 0
KSB1 240823Z 32009KT 14/M14 A3008 RMK A01 T01391143  RH  013%=      5-min Rain = 0
KSB1 240824Z 32009KT 14/M14 A3008 RMK A01 T01391143  RH  013%=      5-min Rain = 0
KSB1 240825Z 31009KT 14/M14 A3008 RMK A01 T01401144  RH  013%=      5-min Rain = 0
KSB1 240826Z 31009KT 14/M14 A3008 RMK A01 T01401144  RH  013%=      5-min Rain = 0
KSB1 240827Z 31008KT 14/M14 A3008 RMK A01 T01401144  RH  013%=      5-min Rain = 0
KSB1 240828Z 31008KT 14/M15 A3008 RMK A01 T01401145  RH  013%=      5-min Rain = 0
KSB1 240829Z 31008KT 14/M15 A3008 RMK A01 T01391145  RH  013%=      5-min Rain = 0
KSB1 240830Z 30008KT 14/M15 A3008 RMK A01 T01381146  RH  013%=      5-min Rain = 0
KSB1 240831Z 30008KT 14/M15 A3008 RMK A01 T01371146  RH  013%=      5-min Rain = 0
KSB1 240832Z 30008KT 14/M15 A3008 RMK A01 T01371147  RH  013%=      5-min Rain = 0
KSB1 240833Z 30008KT 14/M15 A3008 RMK A01 T01381147  RH  012%=      5-min Rain = 0
KSB1 240834Z 29008KT 14/M15 A3008 RMK A01 T01381147  RH  012%=      5-min Rain = 0
KSB1 240835Z 29008KT 14/M15 A3008 RMK A01 T01411147  RH  012%=      5-min Rain = 0
KSB1 240836Z 29008KT 14/M15 A3008 RMK A01 T01421147  RH  012%=      5-min Rain = 0
KSB1 240837Z 30008KT 14/M15 A3008 RMK A01 T01431148  RH  012%=      5-min Rain = 0
KSB1 240838Z 29008KT 14/M15 A3008 RMK A01 T01431148  RH  012%=      5-min Rain = 0
KSB1 240839Z 30008KT 14/M15 A3008 RMK A01 T01441148  RH  012%=      5-min Rain = 0
KSB1 240840Z 30007KT 14/M15 A3008 RMK A01 T01441148  RH  012%=      5-min Rain = 0
KSB1 240841Z 30007KT 14/M15 A3008 RMK A01 T01421149  RH  012%=      5-min Rain = 0
KSB1 240842Z 30008KT 14/M15 A3008 RMK A01 T01421149  RH  012%=      5-min Rain = 0
KSB1 240843Z 30008KT 14/M15 A3008 RMK A01 T01411149  RH  012%=      5-min Rain = 0
KSB1 240844Z 30008KT 14/M15 A3008 RMK A01 T01411150  RH  012%=      5-min Rain = 0
KSB1 240845Z 30008KT 14/M15 A3008 RMK A01 T01411150  RH  012%=      5-min Rain = 0
KSB1 240846Z 30008KT 14/M15 A3008 RMK A01 T01411150  RH  012%=      5-min Rain = 0
KSB1 240847Z 31008KT 14/M15 A3008 RMK A01 T01421151  RH  012%=      5-min Rain = 0
KSB1 240848Z 31008KT 14/M15 A3008 RMK A01 T01431151  RH  012%=      5-min Rain = 0
KSB1 240849Z 31008KT 14/M15 A3008 RMK A01 T01441151  RH  012%=      5-min Rain = 0
KSB1 240850Z 31008KT 14/M15 A3008 RMK A01 T01441151  RH  012%=      5-min Rain = 0
KSB1 240851Z 31008KT 14/M15 A3008 RMK A01 T01431150  RH  012%=      5-min Rain = 0
KSB1 240852Z 30008KT 14/M15 A3008 RMK A01 T01421149  RH  012%=      5-min Rain = 0
KSB1 240853Z 31008KT 14/M15 A3008 RMK A01 T01411149  RH  012%=      5-min Rain = 0
KSB1 240854Z 30009KT 14/M15 A3008 RMK A01 T01401149  RH  012%=      5-min Rain = 0
KSB1 240855Z 31008KT 14/M15 A3008 RMK A01 T01391149  RH  012%=      5-min Rain = 0
KSB1 240856Z 30008KT 14/M15 A3008 RMK A01 T01381149  RH  012%=      5-min Rain = 0
KSB1 240857Z 30008KT 14/M15 A3008 RMK A01 T01381150  RH  012%=      5-min Rain = 0
KSB1 240858Z 30008KT 14/M15 A3008 RMK A01 T01381150  RH  012%=      5-min Rain = 0
KSB1 240859Z 31008KT 14/M15 A3008 RMK A01 T01391150  RH  012%=      5-min Rain = 0
KSB1 240900Z 30008KT 14/M15 A3008 RMK A01 T01391149  RH  012%=      5-min Rain = 0
KSB1 240901Z 30008KT 14/M15 A3008 RMK A01 T01391149  RH  012%=      5-min Rain = 0
KSB1 240902Z 31008KT 14/M15 A3008 RMK A01 T01391148  RH  012%=      5-min Rain = 0
KSB1 240903Z 31007KT 14/M15 A3008 RMK A01 T01381148  RH  012%=      5-min Rain = 0
KSB1 240904Z 31008KT 14/M15 A3008 RMK A01 T01381148  RH  012%=      5-min Rain = 0
KSB1 240905Z 31008KT 14/M15 A3008 RMK A01 T01381148  RH  012%=      5-min Rain = 0
KSB1 240906Z 31008KT 14/M15 A3008 RMK A01 T01381148  RH  012%=      5-min Rain = 0
KSB1 240907Z 31008KT 14/M15 A3008 RMK A01 T01381148  RH  012%=      5-min Rain = 0
KSB1 240908Z 31007KT 14/M15 A3008 RMK A01 T01381148  RH  012%=      5-min Rain = 0
KSB1 240909Z 31007KT 14/M15 A3008 RMK A01 T01371148  RH  012%=      5-min Rain = 0
KSB1 240910Z 31007KT 14/M15 A3008 RMK A01 T01371148  RH  012%=      5-min Rain = 0
KSB1 240911Z 31007KT 14/M15 A3007 RMK A01 T01371148  RH  012%=      5-min Rain = 0
KSB1 240912Z 30008KT 14/M15 A3007 RMK A01 T01371148  RH  012%=      5-min Rain = 0
KSB1 240913Z 31008KT 14/M15 A3007 RMK A01 T01371148  RH  012%=      5-min Rain = 0
KSB1 240914Z 31008KT 14/M15 A3007 RMK A01 T01361148  RH  012%=      5-min Rain = 0
KSB1 240915Z 31008KT 14/M15 A3007 RMK A01 T01361149  RH  012%=      5-min Rain = 0
KSB1 240916Z 31008KT 14/M15 A3007 RMK A01 T01361148  RH  012%=      5-min Rain = 0
KSB1 240917Z 31008KT 14/M15 A3007 RMK A01 T01371148  RH  012%=      5-min Rain = 0
KSB1 240918Z 31008KT 14/M15 A3007 RMK A01 T01381148  RH  012%=      5-min Rain = 0
KSB1 240919Z 31008KT 14/M15 A3007 RMK A01 T01371148  RH  012%=      5-min Rain = 0
KSB1 240920Z 31009KT 14/M15 A3007 RMK A01 T01371147  RH  013%=      5-min Rain = 0
KSB1 240921Z 31009KT 14/M15 A3007 RMK A01 T01371147  RH  012%=      5-min Rain = 0
KSB1 240922Z 31008KT 14/M15 A3007 RMK A01 T01371147  RH  012%=      5-min Rain = 0
KSB1 240923Z 31008KT 14/M15 A3007 RMK A01 T01371147  RH  013%=      5-min Rain = 0
KSB1 240924Z 31008KT 14/M15 A3007 RMK A01 T01371147  RH  013%=      5-min Rain = 0
KSB1 240925Z 31008KT 14/M15 A3007 RMK A01 T01371147  RH  012%=      5-min Rain = 0
KSB1 240926Z 31009KT 14/M15 A3007 RMK A01 T01371148  RH  012%=      5-min Rain = 0
KSB1 240927Z 31009KT 14/M15 A3007 RMK A01 T01371148  RH  012%=      5-min Rain = 0
KSB1 240928Z 31009KT 14/M15 A3007 RMK A01 T01381147  RH  012%=      5-min Rain = 0
KSB1 240929Z 31010KT 14/M15 A3007 RMK A01 T01381146  RH  013%=      5-min Rain = 0
KSB1 240930Z 32009KT 14/M15 A3007 RMK A01 T01381146  RH  013%=      5-min Rain = 0
KSB1 240931Z 32009KT 14/M15 A3007 RMK A01 T01381146  RH  013%=      5-min Rain = 0
KSB1 240932Z 32009KT 14/M15 A3007 RMK A01 T01381146  RH  013%=      5-min Rain = 0
KSB1 240933Z 32010KT 14/M15 A3007 RMK A01 T01391146  RH  012%=      5-min Rain = 0
KSB1 240934Z 32010KT 14/M15 A3007 RMK A01 T01391146  RH  012%=      5-min Rain = 0
KSB1 240935Z 31009KT 14/M15 A3007 RMK A01 T01401147  RH  012%=      5-min Rain = 0
KSB1 240936Z 31009KT 14/M15 A3007 RMK A01 T01401147  RH  012%=      5-min Rain = 0
KSB1 240937Z 31010KT 14/M15 A3007 RMK A01 T01401147  RH  012%=      5-min Rain = 0
KSB1 240938Z 31010KT 14/M15 A3007 RMK A01 T01391147  RH  012%=      5-min Rain = 0
KSB1 240939Z 31010KT 14/M15 A3007 RMK A01 T01391147  RH  012%=      5-min Rain = 0
KSB1 240940Z 31009KT 14/M15 A3007 RMK A01 T01381147  RH  012%=      5-min Rain = 0
KSB1 240941Z 31009KT 14/M15 A3007 RMK A01 T01381147  RH  012%=      5-min Rain = 0
KSB1 240942Z 31009KT 14/M15 A3007 RMK A01 T01371147  RH  013%=      5-min Rain = 0
KSB1 240943Z 31009KT 14/M15 A3007 RMK A01 T01361147  RH  013%=      5-min Rain = 0
KSB1 240944Z 31009KT 14/M15 A3007 RMK A01 T01361147  RH  013%=      5-min Rain = 0
KSB1 240945Z 31009KT 14/M15 A3007 RMK A01 T01361146  RH  013%=      5-min Rain = 0
KSB1 240946Z 31008KT 14/M15 A3007 RMK A01 T01371147  RH  013%=      5-min Rain = 0
KSB1 240947Z 31008KT 14/M15 A3007 RMK A01 T01371148  RH  013%=      5-min Rain = 0
KSB1 240948Z 31009KT 14/M15 A3007 RMK A01 T01371148  RH  012%=      5-min Rain = 0
KSB1 240949Z 31008KT 14/M15 A3007 RMK A01 T01371148  RH  012%=      5-min Rain = 0
KSB1 240950Z 31009KT 14/M15 A3007 RMK A01 T01371148  RH  012%=      5-min Rain = 0
KSB1 240951Z 31008KT 14/M15 A3007 RMK A01 T01371148  RH  012%=      5-min Rain = 0
KSB1 240952Z 31008KT 14/M15 A3007 RMK A01 T01371148  RH  012%=      5-min Rain = 0
KSB1 240953Z 31008KT 14/M15 A3007 RMK A01 T01371148  RH  012%=      5-min Rain = 0
KSB1 240954Z 31008KT 14/M15 A3007 RMK A01 T01371148  RH  012%=      5-min Rain = 0
KSB1 240955Z 31008KT 14/M15 A3007 RMK A01 T01371147  RH  013%=      5-min Rain = 0
KSB1 240956Z 31008KT 14/M15 A3007 RMK A01 T01361147  RH  013%=      5-min Rain = 0
KSB1 240957Z 31008KT 14/M15 A3007 RMK A01 T01361147  RH  013%=      5-min Rain = 0
KSB1 240958Z 31008KT 14/M15 A3008 RMK A01 T01361148  RH  013%=      5-min Rain = 0
KSB1 240959Z 31008KT 14/M15 A3008 RMK A01 T01361148  RH  013%=      5-min Rain = 0
KSB1 241000Z 31008KT 14/M15 A3008 RMK A01 T01361148  RH  012%=      5-min Rain = 0
KSB1 241001Z 31008KT 14/M15 A3008 RMK A01 T01361148  RH  012%=      5-min Rain = 0
KSB1 241002Z 31008KT 14/M15 A3008 RMK A01 T01361149  RH  012%=      5-min Rain = 0
KSB1 241003Z 30008KT 14/M15 A3008 RMK A01 T01361149  RH  012%=      5-min Rain = 0
KSB1 241004Z 30008KT 14/M15 A3008 RMK A01 T01371149  RH  012%=      5-min Rain = 0
KSB1 241005Z 31008KT 14/M15 A3008 RMK A01 T01371149  RH  012%=      5-min Rain = 0
KSB1 241006Z 31008KT 14/M15 A3008 RMK A01 T01371149  RH  012%=      5-min Rain = 0
KSB1 241007Z 31008KT 14/M15 A3008 RMK A01 T01371150  RH  012%=      5-min Rain = 0
KSB1 241008Z 31008KT 14/M15 A3008 RMK A01 T01371149  RH  012%=      5-min Rain = 0
KSB1 241009Z 32008KT 14/M15 A3008 RMK A01 T01371149  RH  012%=      5-min Rain = 0
KSB1 241010Z 32008KT 14/M15 A3008 RMK A01 T01371149  RH  012%=      5-min Rain = 0
KSB1 241011Z 32008KT 14/M15 A3008 RMK A01 T01371150  RH  012%=      5-min Rain = 0
KSB1 241012Z 31008KT 14/M15 A3008 RMK A01 T01381149  RH  012%=      5-min Rain = 0
KSB1 241013Z 31009KT 14/M15 A3008 RMK A01 T01381149  RH  012%=      5-min Rain = 0
KSB1 241014Z 32009KT 14/M15 A3008 RMK A01 T01381149  RH  012%=      5-min Rain = 0
KSB1 241015Z 32009KT 14/M15 A3008 RMK A01 T01371149  RH  012%=      5-min Rain = 0
KSB1 241016Z 32009KT 14/M15 A3008 RMK A01 T01371149  RH  012%=      5-min Rain = 0
KSB1 241017Z 32009KT 14/M15 A3008 RMK A01 T01371150  RH  012%=      5-min Rain = 0
KSB1 241018Z 31009KT 14/M15 A3008 RMK A01 T01381150  RH  012%=      5-min Rain = 0
KSB1 241019Z 31009KT 14/M15 A3008 RMK A01 T01381149  RH  012%=      5-min Rain = 0
KSB1 241020Z 31009KT 14/M15 A3008 RMK A01 T01371150  RH  012%=      5-min Rain = 0
KSB1 241021Z 32009KT 14/M15 A3008 RMK A01 T01371150  RH  012%=      5-min Rain = 0
KSB1 241022Z 31009KT 14/M15 A3008 RMK A01 T01371150  RH  012%=      5-min Rain = 0
KSB1 241023Z 31009KT 14/M15 A3008 RMK A01 T01381150  RH  012%=      5-min Rain = 0
KSB1 241024Z 31008KT 14/M15 A3008 RMK A01 T01381150  RH  012%=      5-min Rain = 0
KSB1 241025Z 31008KT 14/M15 A3008 RMK A01 T01381151  RH  012%=      5-min Rain = 0
KSB1 241026Z 31008KT 14/M15 A3008 RMK A01 T01381152  RH  012%=      5-min Rain = 0
KSB1 241027Z 31008KT 14/M15 A3008 RMK A01 T01381152  RH  012%=      5-min Rain = 0
KSB1 241028Z 31008KT 14/M15 A3008 RMK A01 T01371152  RH  012%=      5-min Rain = 0
KSB1 241029Z 31008KT 14/M15 A3008 RMK A01 T01371152  RH  012%=      5-min Rain = 0
KSB1 241030Z 31008KT 14/M15 A3008 RMK A01 T01371151  RH  012%=      5-min Rain = 0
KSB1 241031Z 31008KT 14/M15 A3008 RMK A01 T01361151  RH  012%=      5-min Rain = 0
KSB1 241032Z 31008KT 14/M15 A3008 RMK A01 T01361151  RH  012%=      5-min Rain = 0
KSB1 241033Z 31008KT 14/M15 A3008 RMK A01 T01361152  RH  012%=      5-min Rain = 0
KSB1 241034Z 31008KT 14/M15 A3008 RMK A01 T01371152  RH  012%=      5-min Rain = 0
KSB1 241035Z 30007KT 14/M15 A3008 RMK A01 T01361152  RH  012%=      5-min Rain = 0
KSB1 241036Z 30008KT 14/M15 A3008 RMK A01 T01361152  RH  012%=      5-min Rain = 0
KSB1 241037Z 31009KT 14/M15 A3008 RMK A01 T01361153  RH  012%=      5-min Rain = 0
KSB1 241038Z 31008KT 14/M15 A3008 RMK A01 T01371153  RH  012%=      5-min Rain = 0
KSB1 241039Z 31008KT 14/M15 A3008 RMK A01 T01371152  RH  012%=      5-min Rain = 0
KSB1 241040Z 31008KT 14/M15 A3008 RMK A01 T01371152  RH  012%=      5-min Rain = 0
KSB1 241041Z 31008KT 14/M15 A3008 RMK A01 T01361152  RH  012%=      5-min Rain = 0
KSB1 241042Z 31008KT 14/M15 A3008 RMK A01 T01361152  RH  012%=      5-min Rain = 0
KSB1 241043Z 30007KT 14/M15 A3008 RMK A01 T01361152  RH  012%=      5-min Rain = 0
KSB1 241044Z 30007KT 14/M15 A3008 RMK A01 T01361152  RH  012%=      5-min Rain = 0
KSB1 241045Z 30007KT 14/M15 A3008 RMK A01 T01361152  RH  012%=      5-min Rain = 0
KSB1 241046Z 30007KT 14/M15 A3008 RMK A01 T01361152  RH  012%=      5-min Rain = 0
KSB1 241047Z 30007KT 14/M15 A3008 RMK A01 T01361153  RH  012%=      5-min Rain = 0
KSB1 241048Z 30007KT 14/M15 A3008 RMK A01 T01351153  RH  012%=      5-min Rain = 0
KSB1 241049Z 30007KT 14/M15 A3008 RMK A01 T01351152  RH  012%=      5-min Rain = 0
KSB1 241050Z 30007KT 14/M15 A3008 RMK A01 T01351152  RH  012%=      5-min Rain = 0
KSB1 241051Z 30007KT 14/M15 A3008 RMK A01 T01361152  RH  012%=      5-min Rain = 0
KSB1 241052Z 31007KT 14/M15 A3008 RMK A01 T01351153  RH  012%=      5-min Rain = 0
KSB1 241053Z 31007KT 14/M15 A3008 RMK A01 T01361153  RH  012%=      5-min Rain = 0
KSB1 241054Z 30007KT 14/M15 A3008 RMK A01 T01371152  RH  012%=      5-min Rain = 0
KSB1 241055Z 30007KT 14/M15 A3008 RMK A01 T01361153  RH  012%=      5-min Rain = 0
KSB1 241056Z 30008KT 14/M15 A3008 RMK A01 T01361154  RH  012%=      5-min Rain = 0
KSB1 241057Z 30008KT 14/M15 A3008 RMK A01 T01371154  RH  012%=      5-min Rain = 0
KSB1 241058Z 30008KT 14/M16 A3008 RMK A01 T01381155  RH  012%=      5-min Rain = 0
KSB1 241059Z 30008KT 14/M16 A3009 RMK A01 T01381155  RH  012%=      5-min Rain = 0
KSB1 241100Z 30008KT 14/M16 A3009 RMK A01 T01381155  RH  012%=      5-min Rain = 0
KSB1 241101Z 30008KT 14/M16 A3009 RMK A01 T01381155  RH  012%=      5-min Rain = 0
KSB1 241102Z 31008KT 14/M15 A3009 RMK A01 T01381154  RH  012%=      5-min Rain = 0
KSB1 241103Z 30009KT 14/M15 A3009 RMK A01 T01371153  RH  012%=      5-min Rain = 0
KSB1 241104Z 31008KT 14/M15 A3009 RMK A01 T01371153  RH  012%=      5-min Rain = 0
KSB1 241105Z 30008KT 14/M15 A3009 RMK A01 T01361153  RH  012%=      5-min Rain = 0
KSB1 241106Z 31008KT 14/M15 A3009 RMK A01 T01351153  RH  012%=      5-min Rain = 0
KSB1 241107Z 31008KT 14/M15 A3009 RMK A01 T01351153  RH  012%=      5-min Rain = 0
KSB1 241108Z 31008KT 13/M15 A3009 RMK A01 T01341153  RH  012%=      5-min Rain = 0
KSB1 241109Z 30008KT 13/M15 A3009 RMK A01 T01341153  RH  012%=      5-min Rain = 0
KSB1 241110Z 30008KT 14/M15 A3009 RMK A01 T01351153  RH  012%=      5-min Rain = 0
KSB1 241111Z 31009KT 14/M15 A3009 RMK A01 T01351154  RH  012%=      5-min Rain = 0
KSB1 241112Z 30009KT 14/M15 A3009 RMK A01 T01351154  RH  012%=      5-min Rain = 0
KSB1 241113Z 30009KT 14/M15 A3009 RMK A01 T01351153  RH  012%=      5-min Rain = 0
KSB1 241114Z 30009KT 14/M15 A3009 RMK A01 T01351154  RH  012%=      5-min Rain = 0
KSB1 241115Z 30009KT 14/M15 A3009 RMK A01 T01351154  RH  012%=      5-min Rain = 0
KSB1 241116Z 30009KT 14/M15 A3009 RMK A01 T01351154  RH  012%=      5-min Rain = 0
KSB1 241117Z 30009KT 14/M15 A3009 RMK A01 T01351154  RH  012%=      5-min Rain = 0
KSB1 241118Z 30009KT 14/M16 A3009 RMK A01 T01351155  RH  012%=      5-min Rain = 0
KSB1 241119Z 31009KT 14/M16 A3009 RMK A01 T01351155  RH  012%=      5-min Rain = 0
KSB1 241120Z 31009KT 14/M15 A3009 RMK A01 T01351154  RH  012%=      5-min Rain = 0
KSB1 241121Z 31009KT 14/M15 A3009 RMK A01 T01351154  RH  012%=      5-min Rain = 0
KSB1 241122Z 30009KT 14/M15 A3009 RMK A01 T01351153  RH  012%=      5-min Rain = 0
KSB1 241123Z 31009KT 13/M15 A3009 RMK A01 T01341154  RH  012%=      5-min Rain = 0
KSB1 241124Z 31009KT 13/M15 A3009 RMK A01 T01331154  RH  012%=      5-min Rain = 0
KSB1 241125Z 31009KT 13/M15 A3009 RMK A01 T01321154  RH  012%=      5-min Rain = 0
KSB1 241126Z 31008KT 13/M15 A3009 RMK A01 T01321153  RH  012%=      5-min Rain = 0
KSB1 241127Z 31009KT 13/M15 A3009 RMK A01 T01321153  RH  012%=      5-min Rain = 0
KSB1 241128Z 31009KT 13/M15 A3009 RMK A01 T01311153  RH  012%=      5-min Rain = 0
KSB1 241129Z 31009KT 13/M15 A3009 RMK A01 T01301153  RH  013%=      5-min Rain = 0
KSB1 241130Z 31009KT 13/M15 A3009 RMK A01 T01291153  RH  013%=      5-min Rain = 0
KSB1 241131Z 31009KT 13/M15 A3009 RMK A01 T01291153  RH  013%=      5-min Rain = 0
KSB1 241132Z 31008KT 13/M15 A3009 RMK A01 T01291152  RH  013%=      5-min Rain = 0
KSB1 241133Z 31008KT 13/M15 A3009 RMK A01 T01291152  RH  013%=      5-min Rain = 0
KSB1 241134Z 31008KT 13/M15 A3009 RMK A01 T01281152  RH  013%=      5-min Rain = 0
KSB1 241135Z 31009KT 13/M15 A3009 RMK A01 T01281152  RH  013%=      5-min Rain = 0
KSB1 241136Z 31008KT 13/M15 A3009 RMK A01 T01281152  RH  013%=      5-min Rain = 0
KSB1 241137Z 30009KT 13/M15 A3009 RMK A01 T01281152  RH  013%=      5-min Rain = 0
KSB1 241138Z 31008KT 13/M15 A3009 RMK A01 T01281152  RH  013%=      5-min Rain = 0
KSB1 241139Z 31009KT 13/M15 A3009 RMK A01 T01281153  RH  013%=      5-min Rain = 0
KSB1 241140Z 30008KT 13/M15 A3009 RMK A01 T01281153  RH  013%=      5-min Rain = 0
KSB1 241141Z 30008KT 13/M15 A3009 RMK A01 T01291154  RH  013%=      5-min Rain = 0
KSB1 241142Z 30008KT 13/M15 A3009 RMK A01 T01301154  RH  012%=      5-min Rain = 0
KSB1 241143Z 30008KT 13/M15 A3009 RMK A01 T01311153  RH  012%=      5-min Rain = 0
KSB1 241144Z 30008KT 13/M15 A3009 RMK A01 T01291154  RH  013%=      5-min Rain = 0
KSB1 241145Z 30008KT 13/M15 A3009 RMK A01 T01281153  RH  013%=      5-min Rain = 0
KSB1 241146Z 30008KT 13/M15 A301 RMK A01 T01271153  RH  013%=      5-min Rain = 0
KSB1 241147Z 30008KT 13/M15 A301 RMK A01 T01271154  RH  013%=      5-min Rain = 0
KSB1 241148Z 30009KT 13/M15 A301 RMK A01 T01281153  RH  013%=      5-min Rain = 0
KSB1 241149Z 30008KT 13/M15 A301 RMK A01 T01291154  RH  012%=      5-min Rain = 0
KSB1 241150Z 30009KT 13/M15 A301 RMK A01 T01301154  RH  012%=      5-min Rain = 0
KSB1 241151Z 30009KT 13/M15 A301 RMK A01 T01301154  RH  012%=      5-min Rain = 0
KSB1 241152Z 30008KT 13/M15 A301 RMK A01 T01311153  RH  012%=      5-min Rain = 0
KSB1 241153Z 31008KT 13/M15 A301 RMK A01 T01301154  RH  012%=      5-min Rain = 0
KSB1 241154Z 31008KT 13/M15 A301 RMK A01 T01301154  RH  012%=      5-min Rain = 0
KSB1 241155Z 31008KT 13/M15 A301 RMK A01 T01301154  RH  012%=      5-min Rain = 0
KSB1 241156Z 31008KT 13/M15 A301 RMK A01 T01301154  RH  012%=      5-min Rain = 0
KSB1 241157Z 31008KT 13/M15 A301 RMK A01 T01301154  RH  012%=      5-min Rain = 0
KSB1 241158Z 31009KT 13/M15 A301 RMK A01 T01291153  RH  013%=      5-min Rain = 0
KSB1 241159Z 31009KT 13/M15 A301 RMK A01 T01281154  RH  013%=      5-min Rain = 0
KSB1 241200Z 31009KT 13/M15 A301 RMK A01 T01281154  RH  013%=      5-min Rain = 0
KSB1 241201Z 31009KT 13/M15 A301 RMK A01 T01291154  RH  013%=      5-min Rain = 0
KSB1 241202Z 31009KT 13/M15 A301 RMK A01 T01291153  RH  013%=      5-min Rain = 0
KSB1 241203Z 31009KT 13/M15 A301 RMK A01 T01281153  RH  013%=      5-min Rain = 0
KSB1 241204Z 31009KT 13/M15 A301 RMK A01 T01281153  RH  013%=      5-min Rain = 0
KSB1 241205Z 31009KT 13/M15 A301 RMK A01 T01281153  RH  013%=      5-min Rain = 0
KSB1 241206Z 31009KT 13/M15 A301 RMK A01 T01281153  RH  013%=      5-min Rain = 0
KSB1 241207Z 31009KT 13/M15 A301 RMK A01 T01281154  RH  013%=      5-min Rain = 0
KSB1 241208Z 31009KT 13/M15 A301 RMK A01 T01271154  RH  013%=      5-min Rain = 0
KSB1 241209Z 31009KT 13/M15 A301 RMK A01 T01271154  RH  013%=      5-min Rain = 0
KSB1 241210Z 31009KT 13/M15 A301 RMK A01 T01271154  RH  013%=      5-min Rain = 0
KSB1 241211Z 31009KT 13/M15 A301 RMK A01 T01271154  RH  013%=      5-min Rain = 0
KSB1 241212Z 31009KT 13/M15 A301 RMK A01 T01261154  RH  013%=      5-min Rain = 0
KSB1 241213Z 31009KT 13/M15 A301 RMK A01 T01261154  RH  013%=      5-min Rain = 0
KSB1 241214Z 31009KT 13/M15 A301 RMK A01 T01261154  RH  013%=      5-min Rain = 0
KSB1 241215Z 31009KT 13/M15 A301 RMK A01 T01261154  RH  013%=      5-min Rain = 0
KSB1 241216Z 31009KT 13/M15 A301 RMK A01 T01261154  RH  013%=      5-min Rain = 0
KSB1 241217Z 31009KT 13/M15 A301 RMK A01 T01251154  RH  013%=      5-min Rain = 0
KSB1 241218Z 31009KT 13/M15 A301 RMK A01 T01251154  RH  013%=      5-min Rain = 0
KSB1 241219Z 31010KT 13/M15 A301 RMK A01 T01251154  RH  013%=      5-min Rain = 0
KSB1 241220Z 31009KT 13/M15 A301 RMK A01 T01251154  RH  013%=      5-min Rain = 0
KSB1 241221Z 31010KT 13/M15 A301 RMK A01 T01261153  RH  013%=      5-min Rain = 0
KSB1 241222Z 31010KT 13/M15 A301 RMK A01 T01261153  RH  013%=      5-min Rain = 0
KSB1 241223Z 31010KT 13/M15 A301 RMK A01 T01261153  RH  013%=      5-min Rain = 0
KSB1 241224Z 31009KT 13/M15 A301 RMK A01 T01261153  RH  013%=      5-min Rain = 0
KSB1 241225Z 31010KT 13/M15 A3011 RMK A01 T01251153  RH  013%=      5-min Rain = 0
KSB1 241226Z 31010KT 13/M15 A3011 RMK A01 T01251153  RH  013%=      5-min Rain = 0
KSB1 241227Z 31010KT 13/M15 A3011 RMK A01 T01251153  RH  013%=      5-min Rain = 0
KSB1 241228Z 31010KT 13/M15 A3011 RMK A01 T01261153  RH  013%=      5-min Rain = 0
KSB1 241229Z 31010KT 13/M15 A3011 RMK A01 T01261153  RH  013%=      5-min Rain = 0
KSB1 241230Z 31010KT 13/M15 A3011 RMK A01 T01261153  RH  013%=      5-min Rain = 0
KSB1 241231Z 31010KT 13/M15 A3011 RMK A01 T01261153  RH  013%=      5-min Rain = 0
KSB1 241232Z 31010KT 13/M15 A3011 RMK A01 T01261153  RH  013%=      5-min Rain = 0
KSB1 241233Z 31010KT 13/M15 A3011 RMK A01 T01261154  RH  013%=      5-min Rain = 0
KSB1 241234Z 31010KT 13/M15 A3011 RMK A01 T01271153  RH  013%=      5-min Rain = 0
KSB1 241235Z 31010KT 13/M15 A3011 RMK A01 T01271152  RH  013%=      5-min Rain = 0
KSB1 241236Z 31010KT 13/M15 A3011 RMK A01 T01271153  RH  013%=      5-min Rain = 0
KSB1 241237Z 31010KT 13/M15 A3011 RMK A01 T01281154  RH  013%=      5-min Rain = 0
KSB1 241238Z 31010KT 13/M15 A3011 RMK A01 T01281154  RH  013%=      5-min Rain = 0
KSB1 241239Z 31010KT 13/M15 A3011 RMK A01 T01281154  RH  013%=      5-min Rain = 0
KSB1 241240Z 32010KT 13/M15 A3011 RMK A01 T01281154  RH  013%=      5-min Rain = 0
KSB1 241241Z 32010KT 13/M15 A3011 RMK A01 T01281154  RH  013%=      5-min Rain = 0
KSB1 241242Z 32010KT 13/M15 A3011 RMK A01 T01281154  RH  013%=      5-min Rain = 0
KSB1 241243Z 32010KT 13/M15 A3011 RMK A01 T01281154  RH  013%=      5-min Rain = 0
KSB1 241244Z 32010KT 13/M15 A3011 RMK A01 T01281153  RH  013%=      5-min Rain = 0
KSB1 241245Z 32010KT 13/M15 A3011 RMK A01 T01281153  RH  013%=      5-min Rain = 0
KSB1 241246Z 32010KT 13/M15 A3011 RMK A01 T01271154  RH  013%=      5-min Rain = 0
KSB1 241247Z 32010KT 13/M15 A3011 RMK A01 T01271154  RH  013%=      5-min Rain = 0
KSB1 241248Z 32010KT 13/M15 A3011 RMK A01 T01271153  RH  013%=      5-min Rain = 0
KSB1 241249Z 32010KT 13/M15 A3011 RMK A01 T01271153  RH  013%=      5-min Rain = 0
KSB1 241250Z 32010KT 13/M15 A3011 RMK A01 T01261154  RH  013%=      5-min Rain = 0
KSB1 241251Z 32010KT 13/M15 A3011 RMK A01 T01251154  RH  013%=      5-min Rain = 0
KSB1 241252Z 32010KT 12/M15 A3011 RMK A01 T01241154  RH  013%=      5-min Rain = 0
KSB1 241253Z 32010KT 12/M15 A3011 RMK A01 T01231153  RH  013%=      5-min Rain = 0
KSB1 241254Z 32010KT 12/M15 A3011 RMK A01 T01221153  RH  013%=      5-min Rain = 0
KSB1 241255Z 32010KT 12/M15 A3011 RMK A01 T01221153  RH  013%=      5-min Rain = 0
KSB1 241256Z 32010KT 12/M15 A3011 RMK A01 T01231153  RH  013%=      5-min Rain = 0
KSB1 241257Z 32010KT 12/M15 A3011 RMK A01 T01231153  RH  013%=      5-min Rain = 0
KSB1 241258Z 32010KT 12/M15 A3011 RMK A01 T01231153  RH  013%=      5-min Rain = 0
KSB1 241259Z 32010KT 12/M15 A3012 RMK A01 T01231153  RH  013%=      5-min Rain = 0
KSB1 241300Z 32010KT 12/M15 A3012 RMK A01 T01241153  RH  013%=      5-min Rain = 0
KSB1 241301Z 32010KT 12/M15 A3012 RMK A01 T01241153  RH  013%=      5-min Rain = 0
KSB1 241302Z 32010KT 12/M15 A3012 RMK A01 T01241153  RH  013%=      5-min Rain = 0
KSB1 241303Z 32011KT 12/M15 A3012 RMK A01 T01241154  RH  013%=      5-min Rain = 0
KSB1 241304Z 32011KT 12/M15 A3012 RMK A01 T01241153  RH  013%=      5-min Rain = 0
KSB1 241305Z 32010KT 12/M15 A3012 RMK A01 T01241154  RH  013%=      5-min Rain = 0
KSB1 241306Z 32010KT 12/M15 A3012 RMK A01 T01241154  RH  013%=      5-min Rain = 0
KSB1 241307Z 32010KT 12/M15 A3012 RMK A01 T01241154  RH  013%=      5-min Rain = 0
KSB1 241308Z 32011KT 12/M15 A3012 RMK A01 T01231154  RH  013%=      5-min Rain = 0
KSB1 241309Z 32010KT 12/M15 A3012 RMK A01 T01231153  RH  013%=      5-min Rain = 0
KSB1 241310Z 32010KT 12/M15 A3012 RMK A01 T01231153  RH  013%=      5-min Rain = 0
KSB1 241311Z 32011KT 12/M15 A3012 RMK A01 T01231154  RH  013%=      5-min Rain = 0
KSB1 241312Z 32011KT 12/M15 A3012 RMK A01 T01231154  RH  013%=      5-min Rain = 0
KSB1 241313Z 32011KT 12/M15 A3012 RMK A01 T01231153  RH  013%=      5-min Rain = 0
KSB1 241314Z 32011KT 12/M15 A3012 RMK A01 T01231154  RH  013%=      5-min Rain = 0
KSB1 241315Z 32011KT 12/M15 A3012 RMK A01 T01231154  RH  013%=      5-min Rain = 0
KSB1 241316Z 32011KT 12/M15 A3012 RMK A01 T01241154  RH  013%=      5-min Rain = 0
KSB1 241317Z 32010KT 12/M15 A3012 RMK A01 T01231154  RH  013%=      5-min Rain = 0
KSB1 241318Z 32011KT 12/M15 A3012 RMK A01 T01241154  RH  013%=      5-min Rain = 0
KSB1 241319Z 31010KT 12/M15 A3012 RMK A01 T01241154  RH  013%=      5-min Rain = 0
KSB1 241320Z 31011KT 12/M15 A3012 RMK A01 T01241154  RH  013%=      5-min Rain = 0
KSB1 241321Z 31010KT 12/M15 A3012 RMK A01 T01241154  RH  013%=      5-min Rain = 0
KSB1 241322Z 31010KT 12/M15 A3012 RMK A01 T01241154  RH  013%=      5-min Rain = 0
KSB1 241323Z 31010KT 12/M16 A3012 RMK A01 T01231155  RH  013%=      5-min Rain = 0
KSB1 241324Z 31010KT 12/M16 A3012 RMK A01 T01231155  RH  013%=      5-min Rain = 0
KSB1 241325Z 31010KT 12/M16 A3013 RMK A01 T01231155  RH  013%=      5-min Rain = 0
KSB1 241326Z 31010KT 12/M16 A3013 RMK A01 T01231156  RH  013%=      5-min Rain = 0
KSB1 241327Z 31010KT 12/M16 A3013 RMK A01 T01231156  RH  013%=      5-min Rain = 0
KSB1 241328Z 31011KT 12/M16 A3013 RMK A01 T01231155  RH  013%=      5-min Rain = 0
KSB1 241329Z 31011KT 12/M16 A3013 RMK A01 T01231155  RH  013%=      5-min Rain = 0
KSB1 241330Z 31011KT 12/M16 A3013 RMK A01 T01231155  RH  013%=      5-min Rain = 0
KSB1 241331Z 31011KT 12/M16 A3013 RMK A01 T01231156  RH  013%=      5-min Rain = 0
KSB1 241332Z 31011KT 12/M16 A3013 RMK A01 T01231155  RH  013%=      5-min Rain = 0
KSB1 241333Z 31011KT 12/M16 A3013 RMK A01 T01231155  RH  013%=      5-min Rain = 0
KSB1 241334Z 31011KT 12/M16 A3013 RMK A01 T01231156  RH  013%=      5-min Rain = 0
KSB1 241335Z 31011KT 12/M16 A3013 RMK A01 T01231156  RH  013%=      5-min Rain = 0
KSB1 241336Z 31011KT 12/M16 A3013 RMK A01 T01241156  RH  013%=      5-min Rain = 0
KSB1 241337Z 31011KT 12/M16 A3013 RMK A01 T01241156  RH  013%=      5-min Rain = 0
KSB1 241338Z 31011KT 13/M16 A3013 RMK A01 T01251156  RH  013%=      5-min Rain = 0
KSB1 241339Z 31011KT 13/M16 A3013 RMK A01 T01251155  RH  013%=      5-min Rain = 0
KSB1 241340Z 31010KT 12/M16 A3013 RMK A01 T01241156  RH  013%=      5-min Rain = 0
KSB1 241341Z 30010KT 12/M16 A3013 RMK A01 T01241156  RH  013%=      5-min Rain = 0
KSB1 241342Z 30009KT 12/M16 A3013 RMK A01 T01241157  RH  013%=      5-min Rain = 0
KSB1 241343Z 30010KT 12/M16 A3013 RMK A01 T01241157  RH  013%=      5-min Rain = 0
KSB1 241344Z 30010KT 13/M16 A3013 RMK A01 T01251157  RH  012%=      5-min Rain = 0
KSB1 241345Z 30009KT 13/M16 A3013 RMK A01 T01271157  RH  012%=      5-min Rain = 0
KSB1 241346Z 30009KT 13/M16 A3013 RMK A01 T01281158  RH  012%=      5-min Rain = 0
KSB1 241347Z 30009KT 13/M16 A3013 RMK A01 T01281158  RH  012%=      5-min Rain = 0
KSB1 241348Z 30009KT 13/M16 A3013 RMK A01 T01281158  RH  012%=      5-min Rain = 0
KSB1 241349Z 30010KT 13/M16 A3013 RMK A01 T01281158  RH  012%=      5-min Rain = 0
KSB1 241350Z 30010KT 13/M16 A3013 RMK A01 T01301159  RH  012%=      5-min Rain = 0
KSB1 241351Z 30010KT 13/M16 A3013 RMK A01 T01331159  RH  012%=      5-min Rain = 0
KSB1 241352Z 30010KT 14/M16 A3013 RMK A01 T01351159  RH  011%=      5-min Rain = 0
KSB1 241353Z 30010KT 14/M16 A3013 RMK A01 T01361160  RH  011%=      5-min Rain = 0
KSB1 241354Z 30010KT 14/M16 A3013 RMK A01 T01361160  RH  011%=      5-min Rain = 0
KSB1 241355Z 30010KT 14/M16 A3013 RMK A01 T01351160  RH  011%=      5-min Rain = 0
KSB1 241356Z 30009KT 14/M16 A3013 RMK A01 T01361161  RH  011%=      5-min Rain = 0
KSB1 241357Z 30009KT 14/M16 A3014 RMK A01 T01361160  RH  011%=      5-min Rain = 0
KSB1 241358Z 30008KT 13/M16 A3014 RMK A01 T01341159  RH  012%=      5-min Rain = 0
KSB1 241359Z 30007KT 13/M16 A3014 RMK A01 T01331159  RH  012%=      5-min Rain = 0
KSB1 241400Z 30007KT 13/M16 A3014 RMK A01 T01331158  RH  012%=      5-min Rain = 0
KSB1 241401Z 30007KT 13/M16 A3014 RMK A01 T01331158  RH  012%=      5-min Rain = 0
KSB1 241402Z 30008KT 13/M16 A3014 RMK A01 T01331157  RH  012%=      5-min Rain = 0
KSB1 241403Z 30008KT 13/M16 A3014 RMK A01 T01341157  RH  012%=      5-min Rain = 0
KSB1 241404Z 30008KT 14/M16 A3014 RMK A01 T01351157  RH  012%=      5-min Rain = 0
KSB1 241405Z 30008KT 14/M16 A3014 RMK A01 T01361156  RH  012%=      5-min Rain = 0
KSB1 241406Z 30008KT 14/M16 A3014 RMK A01 T01371156  RH  012%=      5-min Rain = 0
KSB1 241407Z 30008KT 14/M16 A3014 RMK A01 T01371156  RH  012%=      5-min Rain = 0
KSB1 241408Z 30009KT 14/M16 A3014 RMK A01 T01381157  RH  012%=      5-min Rain = 0
KSB1 241409Z 30008KT 14/M16 A3014 RMK A01 T01381157  RH  011%=      5-min Rain = 0
KSB1 241410Z 30008KT 14/M16 A3014 RMK A01 T01391156  RH  012%=      5-min Rain = 0
KSB1 241411Z 30008KT 14/M16 A3014 RMK A01 T01401157  RH  011%=      5-min Rain = 0
KSB1 241412Z 30009KT 14/M16 A3014 RMK A01 T01411157  RH  011%=      5-min Rain = 0
KSB1 241413Z 30007KT 14/M16 A3014 RMK A01 T01421157  RH  011%=      5-min Rain = 0
KSB1 241414Z 30007KT 14/M16 A3014 RMK A01 T01421157  RH  011%=      5-min Rain = 0
KSB1 241415Z 30007KT 14/M15 A3014 RMK A01 T01431154  RH  011%=      5-min Rain = 0
KSB1 241416Z 31007KT 14/M15 A3014 RMK A01 T01431153  RH  011%=      5-min Rain = 0
KSB1 241417Z 31007KT 14/M15 A3014 RMK A01 T01431153  RH  012%=      5-min Rain = 0
KSB1 241418Z 31008KT 14/M15 A3014 RMK A01 T01431153  RH  012%=      5-min Rain = 0
KSB1 241419Z 31008KT 14/M15 A3014 RMK A01 T01421153  RH  012%=      5-min Rain = 0
KSB1 241420Z 31007KT 14/M15 A3014 RMK A01 T01421154  RH  011%=      5-min Rain = 0
KSB1 241421Z 31007KT 14/M15 A3014 RMK A01 T01431154  RH  011%=      5-min Rain = 0
KSB1 241422Z 31008KT 14/M15 A3014 RMK A01 T01431154  RH  011%=      5-min Rain = 0
KSB1 241423Z 31008KT 14/M15 A3014 RMK A01 T01431154  RH  011%=      5-min Rain = 0
KSB1 241424Z 31007KT 14/M16 A3014 RMK A01 T01431155  RH  011%=      5-min Rain = 0
KSB1 241425Z 31007KT 14/M16 A3014 RMK A01 T01441155  RH  011%=      5-min Rain = 0
KSB1 241426Z 32007KT 14/M15 A3014 RMK A01 T01441154  RH  011%=      5-min Rain = 0
KSB1 241427Z 31008KT 14/M16 A3014 RMK A01 T01441155  RH  011%=      5-min Rain = 0
KSB1 241428Z 31007KT 14/M16 A3015 RMK A01 T01441155  RH  011%=      5-min Rain = 0
KSB1 241429Z 31007KT 15/M15 A3015 RMK A01 T01451154  RH  011%=      5-min Rain = 0
KSB1 241430Z 31006KT 15/M15 A3015 RMK A01 T01451154  RH  011%=      5-min Rain = 0
KSB1 241431Z 31007KT 15/M15 A3015 RMK A01 T01451154  RH  011%=      5-min Rain = 0
KSB1 241432Z 32007KT 15/M15 A3015 RMK A01 T01461152  RH  011%=      5-min Rain = 0
KSB1 241433Z 31007KT 15/M15 A3015 RMK A01 T01461152  RH  011%=      5-min Rain = 0
KSB1 241434Z 32007KT 15/M15 A3015 RMK A01 T01471153  RH  011%=      5-min Rain = 0
KSB1 241435Z 32007KT 15/M15 A3015 RMK A01 T01471153  RH  011%=      5-min Rain = 0
KSB1 241436Z 32007KT 15/M15 A3015 RMK A01 T01471153  RH  011%=      5-min Rain = 0
KSB1 241437Z 32007KT 15/M15 A3015 RMK A01 T01471152  RH  011%=      5-min Rain = 0
KSB1 241438Z 33005KT 15/M15 A3015 RMK A01 T01471151  RH  011%=      5-min Rain = 0
KSB1 241439Z 33006KT 15/M15 A3015 RMK A01 T01481151  RH  011%=      5-min Rain = 0
KSB1 241440Z 32008KT 15/M15 A3015 RMK A01 T01481149  RH  011%=      5-min Rain = 0
KSB1 241441Z 33007KT 15/M15 A3015 RMK A01 T01481151  RH  011%=      5-min Rain = 0
KSB1 241442Z 33005KT 15/M15 A3015 RMK A01 T01481150  RH  011%=      5-min Rain = 0
KSB1 241443Z 33006KT 15/M15 A3015 RMK A01 T01481149  RH  012%=      5-min Rain = 0
KSB1 241444Z 33006KT 15/M15 A3015 RMK A01 T01471149  RH  012%=      5-min Rain = 0
KSB1 241445Z 33006KT 15/M15 A3015 RMK A01 T01471150  RH  011%=      5-min Rain = 0
KSB1 241446Z 33006KT 15/M15 A3015 RMK A01 T01471149  RH  012%=      5-min Rain = 0
KSB1 241447Z 33007KT 15/M15 A3015 RMK A01 T01471149  RH  012%=      5-min Rain = 0
KSB1 241448Z 33006KT 15/M15 A3016 RMK A01 T01471149  RH  011%=      5-min Rain = 0
KSB1 241449Z 33005KT 15/M15 A3016 RMK A01 T01471148  RH  012%=      5-min Rain = 0
KSB1 241450Z 33006KT 15/M15 A3016 RMK A01 T01471149  RH  012%=      5-min Rain = 0
KSB1 241451Z 33007KT 15/M15 A3016 RMK A01 T01481149  RH  011%=      5-min Rain = 0
KSB1 241452Z 33006KT 15/M15 A3016 RMK A01 T01481150  RH  011%=      5-min Rain = 0
KSB1 241453Z 33006KT 15/M15 A3016 RMK A01 T01481150  RH  011%=      5-min Rain = 0
KSB1 241454Z 33007KT 15/M15 A3016 RMK A01 T01491149  RH  011%=      5-min Rain = 0
KSB1 241455Z 33006KT 15/M15 A3016 RMK A01 T01501151  RH  011%=      5-min Rain = 0
KSB1 241456Z 34006KT 15/M15 A3016 RMK A01 T01501151  RH  011%=      5-min Rain = 0
KSB1 241457Z 34006KT 15/M15 A3016 RMK A01 T01501151  RH  011%=      5-min Rain = 0
KSB1 241458Z 33007KT 15/M15 A3016 RMK A01 T01501150  RH  011%=      5-min Rain = 0
KSB1 241459Z 34006KT 15/M15 A3016 RMK A01 T01501151  RH  011%=      5-min Rain = 0
KSB1 241500Z 33006KT 15/M15 A3016 RMK A01 T01511151  RH  011%=      5-min Rain = 0
KSB1 241501Z 34006KT 15/M15 A3016 RMK A01 T01511152  RH  011%=      5-min Rain = 0
KSB1 241502Z 34006KT 15/M15 A3016 RMK A01 T01511152  RH  011%=      5-min Rain = 0
KSB1 241503Z 34005KT 15/M15 A3016 RMK A01 T01511151  RH  011%=      5-min Rain = 0
KSB1 241504Z 34005KT 15/M15 A3016 RMK A01 T01521150  RH  011%=      5-min Rain = 0
KSB1 241505Z 34004KT 15/M15 A3016 RMK A01 T01521150  RH  011%=      5-min Rain = 0
KSB1 241506Z 35004KT 15/M15 A3016 RMK A01 T01531148  RH  011%=      5-min Rain = 0
KSB1 241507Z 35004KT 15/M15 A3016 RMK A01 T01541145  RH  011%=      5-min Rain = 0
KSB1 241508Z 35003KT 16/M15 A3017 RMK A01 T01551146  RH  011%=      5-min Rain = 0
KSB1 241509Z 35004KT 16/M14 A3017 RMK A01 T01561144  RH  011%=      5-min Rain = 0
KSB1 241510Z 04002KT 15/M13 A3017 RMK A01 T01541131  RH  013%=      5-min Rain = 0
KSB1 241511Z 07002KT 15/M12 A3017 RMK A01 T01491119  RH  015%=      5-min Rain = 0
KSB1 241512Z 03003KT 15/M12 A3017 RMK A01 T01461117  RH  015%=      5-min Rain = 0
KSB1 241513Z 06002KT 14/M12 A3017 RMK A01 T01421120  RH  015%=      5-min Rain = 0
KSB1 241514Z 07002KT 14/M12 A3017 RMK A01 T01371120  RH  016%=      5-min Rain = 0
KSB1 241515Z 06003KT 14/M12 A3017 RMK A01 T01351119  RH  016%=      5-min Rain = 0
KSB1 241516Z 08003KT 14/M12 A3017 RMK A01 T01351119  RH  016%=      5-min Rain = 0
KSB1 241517Z 08004KT 14/M12 A3017 RMK A01 T01351121  RH  016%=      5-min Rain = 0
KSB1 241518Z 08004KT 14/M12 A3017 RMK A01 T01351122  RH  016%=      5-min Rain = 0
KSB1 241519Z 09003KT 13/M12 A3017 RMK A01 T01341123  RH  016%=      5-min Rain = 0
KSB1 241520Z 08003KT 13/M12 A3017 RMK A01 T01341123  RH  015%=      5-min Rain = 0
KSB1 241521Z 11003KT 14/M13 A3017 RMK A01 T01351125  RH  015%=      5-min Rain = 0
KSB1 241522Z 08001KT 14/M13 A3017 RMK A01 T01361126  RH  015%=      5-min Rain = 0
KSB1 241523Z 12002KT 14/M13 A3017 RMK A01 T01381125  RH  015%=      5-min Rain = 0
KSB1 241524Z 11002KT 14/M12 A3017 RMK A01 T01401124  RH  015%=      5-min Rain = 0
KSB1 241525Z 12001KT 14/M13 A3017 RMK A01 T01431125  RH  014%=      5-min Rain = 0
KSB1 241526Z 10001KT 15/M13 A3017 RMK A01 T01451125  RH  014%=      5-min Rain = 0
KSB1 241527Z 00000KT 15/M13 A3018 RMK A01 T01481125  RH  014%=      5-min Rain = 0
KSB1 241528Z 10000KT 15/M13 A3018 RMK A01 T01501127  RH  014%=      5-min Rain = 0
KSB1 241529Z 13001KT 15/M13 A3018 RMK A01 T01511126  RH  014%=      5-min Rain = 0
KSB1 241530Z 11000KT 15/M13 A3018 RMK A01 T01521125  RH  014%=      5-min Rain = 0
KSB1 241531Z 00000KT 16/M12 A3018 RMK A01 T01561124  RH  013%=      5-min Rain = 0
KSB1 241532Z 00000KT 16/M13 A3018 RMK A01 T01581125  RH  013%=      5-min Rain = 0
KSB1 241533Z 02001KT 16/M13 A3018 RMK A01 T01601126  RH  013%=      5-min Rain = 0
KSB1 241534Z 02003KT 16/M13 A3018 RMK A01 T01611127  RH  013%=      5-min Rain = 0
KSB1 241535Z 16001KT 16/M13 A3018 RMK A01 T01621128  RH  012%=      5-min Rain = 0
KSB1 241536Z 34004KT 16/M13 A3018 RMK A01 T01641128  RH  012%=      5-min Rain = 0
KSB1 241537Z 33007KT 17/M14 A3018 RMK A01 T01651136  RH  011%=      5-min Rain = 0
KSB1 241538Z 32006KT 17/M14 A3018 RMK A01 T01651140  RH  011%=      5-min Rain = 0
KSB1 241539Z 32006KT 17/M14 A3018 RMK A01 T01661139  RH  011%=      5-min Rain = 0
KSB1 241540Z 31006KT 17/M14 A3018 RMK A01 T01661140  RH  011%=      5-min Rain = 0
KSB1 241541Z 32005KT 17/M14 A3018 RMK A01 T01661140  RH  011%=      5-min Rain = 0
KSB1 241542Z 32006KT 17/M14 A3018 RMK A01 T01671140  RH  011%=      5-min Rain = 0
KSB1 241543Z 32007KT 17/M14 A3017 RMK A01 T01681139  RH  011%=      5-min Rain = 0
KSB1 241544Z 32005KT 17/M14 A3018 RMK A01 T01681140  RH  011%=      5-min Rain = 0
KSB1 241545Z 32005KT 17/M14 A3018 RMK A01 T01681142  RH  011%=      5-min Rain = 0
KSB1 241546Z 31006KT 17/M14 A3018 RMK A01 T01691142  RH  011%=      5-min Rain = 0
KSB1 241547Z 32005KT 17/M14 A3017 RMK A01 T01691142  RH  011%=      5-min Rain = 0
KSB1 241548Z 31005KT 17/M14 A3017 RMK A01 T01691141  RH  011%=      5-min Rain = 0
KSB1 241549Z 31006KT 17/M14 A3017 RMK A01 T01691144  RH  010%=      5-min Rain = 0
KSB1 241550Z 32006KT 17/M15 A3017 RMK A01 T01711145  RH  010%=      5-min Rain = 0
KSB1 241551Z 31007KT 17/M15 A3017 RMK A01 T01731145  RH  010%=      5-min Rain = 0
KSB1 241552Z 31006KT 17/M15 A3017 RMK A01 T01741147  RH  010%=      5-min Rain = 0
KSB1 241553Z 31006KT 18/M15 A3017 RMK A01 T01751147  RH  010%=      5-min Rain = 0
KSB1 241554Z 31007KT 18/M15 A3017 RMK A01 T01761154  RH  009%=      5-min Rain = 0
KSB1 241555Z 31007KT 18/M16 A3017 RMK A01 T01751155  RH  009%=      5-min Rain = 0
KSB1 241556Z 31007KT 18/M16 A3017 RMK A01 T01751157  RH  009%=      5-min Rain = 0
KSB1 241557Z 31008KT 18/M16 A3017 RMK A01 T01751159  RH  009%=      5-min Rain = 0
KSB1 241558Z 31007KT 18/M16 A3017 RMK A01 T01761160  RH  009%=      5-min Rain = 0
KSB1 241559Z 31007KT 18/M16 A3017 RMK A01 T01761160  RH  009%=      5-min Rain = 0
KSB1 241600Z 31007KT 18/M16 A3017 RMK A01 T01761162  RH  009%=      5-min Rain = 0
KSB1 241601Z 31006KT 18/M16 A3017 RMK A01 T01751161  RH  009%=      5-min Rain = 0
KSB1 241602Z 31008KT 18/M16 A3017 RMK A01 T01771157  RH  009%=      5-min Rain = 0
KSB1 241603Z 31007KT 18/M16 A3017 RMK A01 T01771161  RH  009%=      5-min Rain = 0
KSB1 241604Z 32006KT 18/M16 A3017 RMK A01 T01771160  RH  009%=      5-min Rain = 0
KSB1 241605Z 30007KT 18/M16 A3017 RMK A01 T01791158  RH  009%=      5-min Rain = 0
KSB1 241606Z 32007KT 18/M16 A3017 RMK A01 T01791160  RH  009%=      5-min Rain = 0
KSB1 241607Z 31007KT 18/M16 A3017 RMK A01 T01791161  RH  009%=      5-min Rain = 0
KSB1 241608Z 31007KT 18/M16 A3017 RMK A01 T01791161  RH  009%=      5-min Rain = 0
KSB1 241609Z 31007KT 18/M16 A3017 RMK A01 T01791162  RH  008%=      5-min Rain = 0
KSB1 241610Z 31007KT 18/M16 A3017 RMK A01 T01801161  RH  008%=      5-min Rain = 0
KSB1 241611Z 31007KT 18/M16 A3017 RMK A01 T01801162  RH  008%=      5-min Rain = 0
KSB1 241612Z 30007KT 18/M16 A3017 RMK A01 T01801161  RH  008%=      5-min Rain = 0
KSB1 241613Z 31007KT 18/M16 A3017 RMK A01 T01791162  RH  008%=      5-min Rain = 0
KSB1 241614Z 31007KT 18/M17 A3017 RMK A01 T01791166  RH  008%=      5-min Rain = 0
KSB1 241615Z 30006KT 18/M17 A3017 RMK A01 T01791166  RH  008%=      5-min Rain = 0
KSB1 241616Z 30007KT 18/M17 A3017 RMK A01 T01791167  RH  008%=      5-min Rain = 0
KSB1 241617Z 30005KT 18/M17 A3017 RMK A01 T01791168  RH  008%=      5-min Rain = 0
KSB1 241618Z 31006KT 18/M17 A3017 RMK A01 T01801167  RH  008%=      5-min Rain = 0
KSB1 241619Z 31006KT 18/M17 A3017 RMK A01 T01811165  RH  008%=      5-min Rain = 0
KSB1 241620Z 31005KT 18/M17 A3017 RMK A01 T01821166  RH  008%=      5-min Rain = 0
KSB1 241621Z 31006KT 18/M17 A3017 RMK A01 T01821165  RH  008%=      5-min Rain = 0
KSB1 241622Z 31007KT 18/M16 A3017 RMK A01 T01831163  RH  008%=      5-min Rain = 0
KSB1 241623Z 31006KT 18/M16 A3017 RMK A01 T01831163  RH  008%=      5-min Rain = 0
KSB1 241624Z 32006KT 18/M17 A3017 RMK A01 T01821165  RH  008%=      5-min Rain = 0
KSB1 241625Z 32006KT 18/M17 A3017 RMK A01 T01811165  RH  008%=      5-min Rain = 0
KSB1 241626Z 31005KT 18/M16 A3017 RMK A01 T01821161  RH  008%=      5-min Rain = 0
KSB1 241627Z 32005KT 18/M16 A3016 RMK A01 T01821159  RH  009%=      5-min Rain = 0
KSB1 241628Z 34005KT 18/M16 A3016 RMK A01 T01831158  RH  009%=      5-min Rain = 0
KSB1 241629Z 32005KT 18/M16 A3017 RMK A01 T01841158  RH  008%=      5-min Rain = 0
KSB1 241630Z 30004KT 19/M16 A3017 RMK A01 T01851158  RH  008%=      5-min Rain = 0
KSB1 241631Z 34005KT 18/M16 A3017 RMK A01 T01841158  RH  008%=      5-min Rain = 0
KSB1 241632Z 34006KT 18/M16 A3017 RMK A01 T01841158  RH  008%=      5-min Rain = 0
KSB1 241633Z 36005KT 18/M16 A3017 RMK A01 T01841159  RH  008%=      5-min Rain = 0
KSB1 241634Z 00004KT 18/M16 A3017 RMK A01 T01841161  RH  008%=      5-min Rain = 0
KSB1 241635Z 35003KT 18/M16 A3017 RMK A01 T01841160  RH  008%=      5-min Rain = 0
KSB1 241636Z 33006KT 18/M16 A3016 RMK A01 T01841159  RH  008%=      5-min Rain = 0
KSB1 241637Z 31005KT 19/M16 A3016 RMK A01 T01851158  RH  008%=      5-min Rain = 0
KSB1 241638Z 30004KT 19/M16 A3016 RMK A01 T01861163  RH  008%=      5-min Rain = 0
KSB1 241639Z 30004KT 19/M17 A3016 RMK A01 T01851165  RH  008%=      5-min Rain = 0
KSB1 241640Z 31005KT 19/M16 A3016 RMK A01 T01851163  RH  008%=      5-min Rain = 0
KSB1 241641Z 31006KT 19/M16 A3016 RMK A01 T01851164  RH  008%=      5-min Rain = 0
KSB1 241642Z 31005KT 19/M17 A3017 RMK A01 T01851168  RH  008%=      5-min Rain = 0
KSB1 241643Z 32005KT 18/M17 A3017 RMK A01 T01841167  RH  008%=      5-min Rain = 0
KSB1 241644Z 32004KT 18/M17 A3017 RMK A01 T01841169  RH  008%=      5-min Rain = 0
KSB1 241645Z 35004KT 18/M17 A3017 RMK A01 T01841165  RH  008%=      5-min Rain = 0
KSB1 241646Z 36003KT 19/M17 A3017 RMK A01 T01851166  RH  008%=      5-min Rain = 0
KSB1 241647Z 34003KT 19/M17 A3017 RMK A01 T01851166  RH  008%=      5-min Rain = 0
KSB1 241648Z 33004KT 19/M16 A3017 RMK A01 T01861161  RH  008%=      5-min Rain = 0
KSB1 241649Z 33006KT 19/M16 A3017 RMK A01 T01881163  RH  008%=      5-min Rain = 0
KSB1 241650Z 34005KT 19/M17 A3017 RMK A01 T01881165  RH  008%=      5-min Rain = 0
KSB1 241651Z 33005KT 19/M17 A3017 RMK A01 T01881166  RH  008%=      5-min Rain = 0
KSB1 241652Z 34005KT 19/M17 A3017 RMK A01 T01881165  RH  008%=      5-min Rain = 0
KSB1 241653Z 33006KT 19/M17 A3017 RMK A01 T01881165  RH  008%=      5-min Rain = 0
KSB1 241654Z 32005KT 19/M17 A3017 RMK A01 T01881167  RH  008%=      5-min Rain = 0
KSB1 241655Z 32004KT 19/M17 A3017 RMK A01 T01871166  RH  008%=      5-min Rain = 0
KSB1 241656Z 34005KT 19/M17 A3017 RMK A01 T01871165  RH  008%=      5-min Rain = 0
KSB1 241657Z 34006KT 19/M17 A3017 RMK A01 T01881165  RH  008%=      5-min Rain = 0
KSB1 241658Z 34006KT 19/M16 A3017 RMK A01 T01881164  RH  008%=      5-min Rain = 0
KSB1 241659Z 34006KT 19/M16 A3017 RMK A01 T01881164  RH  008%=      5-min Rain = 0
KSB1 241700Z 33004KT 19/M17 A3017 RMK A01 T01891167  RH  008%=      5-min Rain = 0
KSB1 241701Z 34004KT 19/M17 A3017 RMK A01 T01881169  RH  008%=      5-min Rain = 0
KSB1 241702Z 36005KT 19/M17 A3017 RMK A01 T01881165  RH  008%=      5-min Rain = 0
KSB1 241703Z 01005KT 19/M16 A3017 RMK A01 T01891164  RH  008%=      5-min Rain = 0
KSB1 241704Z 00004KT 19/M16 A3017 RMK A01 T01901162  RH  008%=      5-min Rain = 0
KSB1 241705Z 34003KT 19/M16 A3017 RMK A01 T01921163  RH  008%=      5-min Rain = 0
KSB1 241706Z 29002KT 19/M16 A3017 RMK A01 T01921164  RH  008%=      5-min Rain = 0
KSB1 241707Z 34004KT 19/M16 A3017 RMK A01 T01921164  RH  008%=      5-min Rain = 0
KSB1 241708Z 33005KT 19/M16 A3017 RMK A01 T01921162  RH  008%=      5-min Rain = 0
KSB1 241709Z 35006KT 19/M16 A3017 RMK A01 T01931164  RH  008%=      5-min Rain = 0
KSB1 241710Z 32006KT 19/M16 A3017 RMK A01 T01931162  RH  008%=      5-min Rain = 0
KSB1 241711Z 31005KT 19/M16 A3017 RMK A01 T01941163  RH  008%=      5-min Rain = 0
KSB1 241712Z 28005KT 19/M16 A3018 RMK A01 T01931162  RH  008%=      5-min Rain = 0
KSB1 241713Z 27005KT 19/M16 A3018 RMK A01 T01931162  RH  008%=      5-min Rain = 0
KSB1 241714Z 25004KT 19/M16 A3018 RMK A01 T01931163  RH  008%=      5-min Rain = 0
KSB1 241715Z 25004KT 19/M17 A3017 RMK A01 T01921166  RH  008%=      5-min Rain = 0
KSB1 241716Z 27003KT 19/M17 A3017 RMK A01 T01901168  RH  008%=      5-min Rain = 0
KSB1 241717Z 31003KT 19/M17 A3017 RMK A01 T01891166  RH  008%=      5-min Rain = 0
KSB1 241718Z 29005KT 19/M16 A3017 RMK A01 T01891163  RH  008%=      5-min Rain = 0
KSB1 241719Z 29006KT 19/M16 A3017 RMK A01 T01911160  RH  008%=      5-min Rain = 0
KSB1 241720Z 29004KT 19/M16 A3017 RMK A01 T01941157  RH  008%=      5-min Rain = 0
KSB1 241721Z 31004KT 20/M16 A3018 RMK A01 T01951160  RH  008%=      5-min Rain = 0
KSB1 241722Z 30004KT 20/M16 A3017 RMK A01 T01951161  RH  008%=      5-min Rain = 0
KSB1 241723Z 27003KT 20/M16 A3017 RMK A01 T01951163  RH  008%=      5-min Rain = 0
KSB1 241724Z 27004KT 19/M16 A3017 RMK A01 T01941163  RH  008%=      5-min Rain = 0
KSB1 241725Z 28003KT 19/M17 A3017 RMK A01 T01941165  RH  008%=      5-min Rain = 0
KSB1 241726Z 26004KT 19/M16 A3017 RMK A01 T01931163  RH  008%=      5-min Rain = 0
KSB1 241727Z 26004KT 19/M16 A3017 RMK A01 T01931163  RH  008%=      5-min Rain = 0
KSB1 241728Z 28004KT 19/M16 A3017 RMK A01 T01921163  RH  008%=      5-min Rain = 0
KSB1 241729Z 25004KT 19/M16 A3017 RMK A01 T01921163  RH  008%=      5-min Rain = 0
KSB1 241730Z 24003KT 19/M16 A3017 RMK A01 T01921162  RH  008%=      5-min Rain = 0
KSB1 241731Z 23004KT 19/M16 A3017 RMK A01 T01921163  RH  008%=      5-min Rain = 0
KSB1 241732Z 23005KT 19/M16 A3017 RMK A01 T01941158  RH  008%=      5-min Rain = 0
KSB1 241733Z 22005KT 20/M16 A3017 RMK A01 T01951158  RH  008%=      5-min Rain = 0
KSB1 241734Z 21004KT 20/M16 A3017 RMK A01 T01951160  RH  008%=      5-min Rain = 0
KSB1 241735Z 20002KT 19/M16 A3017 RMK A01 T01941162  RH  008%=      5-min Rain = 0
KSB1 241736Z 25002KT 20/M16 A3017 RMK A01 T01951161  RH  008%=      5-min Rain = 0
KSB1 241737Z 26003KT 20/M16 A3017 RMK A01 T01961158  RH  008%=      5-min Rain = 0
KSB1 241738Z 27005KT 20/M16 A3017 RMK A01 T01981155  RH  008%=      5-min Rain = 0
KSB1 241739Z 27005KT 20/M16 A3017 RMK A01 T01981160  RH  008%=      5-min Rain = 0
KSB1 241740Z 27004KT 20/M17 A3017 RMK A01 T01951165  RH  008%=      5-min Rain = 0
KSB1 241741Z 28002KT 19/M16 A3017 RMK A01 T01921164  RH  008%=      5-min Rain = 0
KSB1 241742Z 30001KT 19/M16 A3017 RMK A01 T01921163  RH  008%=      5-min Rain = 0
KSB1 241743Z 30001KT 19/M16 A3017 RMK A01 T01931163  RH  008%=      5-min Rain = 0
KSB1 241744Z 25002KT 19/M16 A3017 RMK A01 T01941163  RH  008%=      5-min Rain = 0
KSB1 241745Z 25005KT 19/M16 A3017 RMK A01 T01941160  RH  008%=      5-min Rain = 0
KSB1 241746Z 26005KT 20/M16 A3017 RMK A01 T01971155  RH  008%=      5-min Rain = 0
KSB1 241747Z 24002KT 20/M16 A3017 RMK A01 T01971161  RH  008%=      5-min Rain = 0
KSB1 241748Z 23001KT 20/M16 A3017 RMK A01 T01961162  RH  008%=      5-min Rain = 0
KSB1 241749Z 23000KT 20/M16 A3017 RMK A01 T01961161  RH  008%=      5-min Rain = 0
KSB1 241750Z 34000KT 20/M16 A3016 RMK A01 T01981159  RH  008%=      5-min Rain = 0
KSB1 241751Z 03001KT 20/M16 A3016 RMK A01 T02001161  RH  007%=      5-min Rain = 0
KSB1 241752Z 03003KT 20/M16 A3016 RMK A01 T02001159  RH  008%=      5-min Rain = 0
KSB1 241753Z 02003KT 20/M16 A3016 RMK A01 T02001157  RH  008%=      5-min Rain = 0
KSB1 241754Z 04004KT 20/M16 A3016 RMK A01 T02011159  RH  008%=      5-min Rain = 0
KSB1 241755Z 03004KT 20/M16 A3016 RMK A01 T02001159  RH  008%=      5-min Rain = 0
KSB1 241756Z 04003KT 20/M16 A3016 RMK A01 T01981161  RH  008%=      5-min Rain = 0
KSB1 241757Z 05003KT 20/M16 A3016 RMK A01 T01971158  RH  008%=      5-min Rain = 0
KSB1 241758Z 05004KT 20/M16 A3016 RMK A01 T01971158  RH  008%=      5-min Rain = 0
KSB1 241759Z 05003KT 20/M16 A3016 RMK A01 T01971159  RH  008%=      5-min Rain = 0
KSB1 241800Z 07002KT 20/M16 A3016 RMK A01 T01971158  RH  008%=      5-min Rain = 0
KSB1 241801Z 08000KT 20/M16 A3016 RMK A01 T01981159  RH  008%=      5-min Rain = 0
KSB1 241802Z 15000KT 20/M16 A3016 RMK A01 T01991160  RH  008%=      5-min Rain = 0
KSB1 241803Z 14001KT 20/M16 A3016 RMK A01 T02021157  RH  008%=      5-min Rain = 0
KSB1 241804Z 13001KT 20/M15 A3016 RMK A01 T02041153  RH  008%=      5-min Rain = 0
KSB1 241805Z 12001KT 21/M15 A3016 RMK A01 T02071153  RH  008%=      5-min Rain = 0
KSB1 241806Z 05002KT 21/M15 A3016 RMK A01 T02081152  RH  008%=      5-min Rain = 0
KSB1 241807Z 05002KT 21/M15 A3016 RMK A01 T02091154  RH  008%=      5-min Rain = 0
KSB1 241808Z 05001KT 21/M16 A3016 RMK A01 T02081157  RH  007%=      5-min Rain = 0
KSB1 241809Z 35001KT 21/M15 A3016 RMK A01 T02081154  RH  008%=      5-min Rain = 0
KSB1 241810Z 22002KT 21/M16 A3016 RMK A01 T02081155  RH  007%=      5-min Rain = 0
KSB1 241811Z 22004KT 21/M15 A3016 RMK A01 T02081154  RH  008%=      5-min Rain = 0
KSB1 241812Z 22003KT 21/M15 A3016 RMK A01 T02071151  RH  008%=      5-min Rain = 0
KSB1 241813Z 18005KT 21/M15 A3016 RMK A01 T02061154  RH  008%=      5-min Rain = 0
KSB1 241814Z 19004KT 20/M16 A3016 RMK A01 T02031158  RH  008%=      5-min Rain = 0
KSB1 241815Z 26004KT 20/M15 A3016 RMK A01 T02031150  RH  008%=      5-min Rain = 0
KSB1 241816Z 24002KT 20/M15 A3016 RMK A01 T02041154  RH  008%=      5-min Rain = 0
KSB1 241817Z 20001KT 20/M16 A3016 RMK A01 T02011158  RH  008%=      5-min Rain = 0
KSB1 241818Z 09002KT 20/M16 A3016 RMK A01 T02011157  RH  008%=      5-min Rain = 0
KSB1 241819Z 10002KT 20/M16 A3016 RMK A01 T02001156  RH  008%=      5-min Rain = 0
KSB1 241820Z 30003KT 20/M15 A3016 RMK A01 T02001152  RH  008%=      5-min Rain = 0
KSB1 241821Z 30004KT 20/M15 A3016 RMK A01 T02011153  RH  008%=      5-min Rain = 0
KSB1 241822Z 31003KT 20/M15 A3016 RMK A01 T02001153  RH  008%=      5-min Rain = 0
KSB1 241823Z 30002KT 20/M15 A3015 RMK A01 T02001149  RH  008%=      5-min Rain = 0
KSB1 241824Z 28003KT 20/M15 A3015 RMK A01 T02021147  RH  008%=      5-min Rain = 0
KSB1 241825Z 28002KT 20/M15 A3015 RMK A01 T02031152  RH  008%=      5-min Rain = 0
KSB1 241826Z 29003KT 20/M15 A3015 RMK A01 T02021152  RH  008%=      5-min Rain = 0
KSB1 241827Z 29003KT 20/M15 A3015 RMK A01 T02011151  RH  008%=      5-min Rain = 0
KSB1 241828Z 31002KT 20/M15 A3015 RMK A01 T02021148  RH  008%=      5-min Rain = 0
KSB1 241829Z 32002KT 20/M15 A3015 RMK A01 T02041149  RH  008%=      5-min Rain = 0
KSB1 241830Z 33003KT 20/M15 A3015 RMK A01 T02041150  RH  008%=      5-min Rain = 0
KSB1 241831Z 34004KT 20/M15 A3015 RMK A01 T02041149  RH  008%=      5-min Rain = 0
KSB1 241832Z 35004KT 20/M15 A3015 RMK A01 T02031152  RH  008%=      5-min Rain = 0
KSB1 241833Z 33003KT 20/M15 A3015 RMK A01 T02031149  RH  008%=      5-min Rain = 0
KSB1 241834Z 34001KT 20/M15 A3015 RMK A01 T02031150  RH  008%=      5-min Rain = 0
KSB1 241835Z 36001KT 20/M15 A3015 RMK A01 T02041153  RH  008%=      5-min Rain = 0
KSB1 241836Z 01004KT 21/M15 A3015 RMK A01 T02051150  RH  008%=      5-min Rain = 0
KSB1 241837Z 02003KT 21/M15 A3015 RMK A01 T02071148  RH  008%=      5-min Rain = 0
KSB1 241838Z 33003KT 21/M15 A3014 RMK A01 T02091148  RH  008%=      5-min Rain = 0
KSB1 241839Z 30002KT 21/M15 A3014 RMK A01 T02091150  RH  008%=      5-min Rain = 0
KSB1 241840Z 28005KT 21/M15 A3014 RMK A01 T02091146  RH  008%=      5-min Rain = 0
KSB1 241841Z 28005KT 21/M14 A3014 RMK A01 T02101144  RH  008%=      5-min Rain = 0
KSB1 241842Z 29006KT 21/M15 A3014 RMK A01 T02111146  RH  008%=      5-min Rain = 0
KSB1 241843Z 27006KT 21/M15 A3014 RMK A01 T02111147  RH  008%=      5-min Rain = 0
KSB1 241844Z 28006KT 21/M15 A3014 RMK A01 T02091148  RH  008%=      5-min Rain = 0
KSB1 241845Z 31004KT 21/M15 A3014 RMK A01 T02061151  RH  008%=      5-min Rain = 0
KSB1 241846Z 30002KT 21/M15 A3014 RMK A01 T02051152  RH  008%=      5-min Rain = 0
KSB1 241847Z 29003KT 20/M15 A3014 RMK A01 T02041150  RH  008%=      5-min Rain = 0
KSB1 241848Z 27003KT 21/M15 A3014 RMK A01 T02051149  RH  008%=      5-min Rain = 0
KSB1 241849Z 27003KT 21/M15 A3014 RMK A01 T02061147  RH  008%=      5-min Rain = 0
KSB1 241850Z 31003KT 21/M15 A3014 RMK A01 T02081146  RH  008%=      5-min Rain = 0
KSB1 241851Z 29001KT 21/M15 A3013 RMK A01 T02081149  RH  008%=      5-min Rain = 0
KSB1 241852Z 26002KT 21/M15 A3013 RMK A01 T02071149  RH  008%=      5-min Rain = 0
KSB1 241853Z 28003KT 21/M14 A3013 RMK A01 T02081144  RH  008%=      5-min Rain = 0
KSB1 241854Z 27002KT 21/M15 A3013 RMK A01 T02091148  RH  008%=      5-min Rain = 0
KSB1 241855Z 26003KT 21/M15 A3013 RMK A01 T02091145  RH  008%=      5-min Rain = 0
KSB1 241856Z 23003KT 21/M15 A3013 RMK A01 T02101146  RH  008%=      5-min Rain = 0
KSB1 241857Z 22003KT 21/M15 A3013 RMK A01 T02101146  RH  008%=      5-min Rain = 0
KSB1 241858Z 28002KT 21/M15 A3013 RMK A01 T02081147  RH  008%=      5-min Rain = 0
KSB1 241859Z 23004KT 21/M14 A3013 RMK A01 T02071144  RH  008%=      5-min Rain = 0
KSB1 241900Z 20008KT 21/M14 A3013 RMK A01 T02071144  RH  008%=      5-min Rain = 0
KSB1 241901Z 18010KT 21/M14 A3013 RMK A01 T02091140  RH  008%=      5-min Rain = 0
KSB1 241902Z 18008KT 21/M14 A3013 RMK A01 T02091144  RH  008%=      5-min Rain = 0
KSB1 241903Z 17006KT 21/M14 A3013 RMK A01 T02091140  RH  008%=      5-min Rain = 0
KSB1 241904Z 17006KT 21/M14 A3013 RMK A01 T02101144  RH  008%=      5-min Rain = 0
KSB1 241905Z 19007KT 21/M14 A3013 RMK A01 T02091144  RH  008%=      5-min Rain = 0
KSB1 241906Z 15003KT 21/M14 A3013 RMK A01 T02091143  RH  008%=      5-min Rain = 0
KSB1 241907Z 11003KT 21/M15 A3012 RMK A01 T02091145  RH  008%=      5-min Rain = 0
KSB1 241908Z 18004KT 21/M14 A3012 RMK A01 T02081141  RH  008%=      5-min Rain = 0
KSB1 241909Z 23005KT 21/M14 A3012 RMK A01 T02111140  RH  008%=      5-min Rain = 0
KSB1 241910Z 23005KT 21/M14 A3012 RMK A01 T02111143  RH  008%=      5-min Rain = 0
KSB1 241911Z 23005KT 21/M14 A3012 RMK A01 T02111144  RH  008%=      5-min Rain = 0
KSB1 241912Z 26006KT 21/M14 A3012 RMK A01 T02111143  RH  008%=      5-min Rain = 0
KSB1 241913Z 26008KT 21/M14 A3012 RMK A01 T02131139  RH  008%=      5-min Rain = 0
KSB1 241914Z 28006KT 21/M14 A3012 RMK A01 T02141140  RH  008%=      5-min Rain = 0
KSB1 241915Z 28006KT 21/M14 A3012 RMK A01 T02131140  RH  008%=      5-min Rain = 0
KSB1 241916Z 27011KT 22/M14 A3012 RMK A01 T02151137  RH  008%=      5-min Rain = 0
KSB1 241917Z 30008KT 22/M14 A3011 RMK A01 T02151141  RH  008%=      5-min Rain = 0
KSB1 241918Z 30008KT 21/M14 A3011 RMK A01 T02141139  RH  008%=      5-min Rain = 0
KSB1 241919Z 30006KT 21/M14 A3011 RMK A01 T02141141  RH  008%=      5-min Rain = 0
KSB1 241920Z 22007KT 21/M14 A3012 RMK A01 T02131141  RH  008%=      5-min Rain = 0
KSB1 241921Z 21007KT 21/M14 A3012 RMK A01 T02141138  RH  008%=      5-min Rain = 0
KSB1 241922Z 23007KT 22/M14 A3011 RMK A01 T02151140  RH  008%=      5-min Rain = 0
KSB1 241923Z 25005KT 21/M14 A3011 RMK A01 T02141142  RH  008%=      5-min Rain = 0
KSB1 241924Z 25006KT 21/M14 A3011 RMK A01 T02131140  RH  008%=      5-min Rain = 0
KSB1 241925Z 25006KT 21/M14 A3011 RMK A01 T02131142  RH  008%=      5-min Rain = 0
KSB1 241926Z 26003KT 21/M14 A3011 RMK A01 T02111144  RH  008%=      5-min Rain = 0
KSB1 241927Z 14003KT 21/M14 A3011 RMK A01 T02101143  RH  008%=      5-min Rain = 0
KSB1 241928Z 15004KT 21/M14 A3011 RMK A01 T02101143  RH  008%=      5-min Rain = 0
KSB1 241929Z 15004KT 21/M14 A3011 RMK A01 T02121142  RH  008%=      5-min Rain = 0
KSB1 241930Z 16007KT 22/M14 A3011 RMK A01 T02151136  RH  008%=      5-min Rain = 0
KSB1 241931Z 20007KT 22/M14 A3011 RMK A01 T02191136  RH  008%=      5-min Rain = 0
KSB1 241932Z 22006KT 22/M14 A3011 RMK A01 T02191140  RH  008%=      5-min Rain = 0
KSB1 241933Z 23011KT 22/M14 A3011 RMK A01 T02181141  RH  008%=      5-min Rain = 0
KSB1 241934Z 23011KT 22/M14 A3011 RMK A01 T02171142  RH  008%=      5-min Rain = 0
KSB1 241935Z 23011KT 22/M14 A3011 RMK A01 T02161144  RH  008%=      5-min Rain = 0
KSB1 241936Z 23009KT 21/M15 A3011 RMK A01 T02141147  RH  008%=      5-min Rain = 0
KSB1 241937Z 22009KT 21/M15 A3011 RMK A01 T02121146  RH  008%=      5-min Rain = 0
KSB1 241938Z 22010KT 21/M14 A3011 RMK A01 T02141142  RH  008%=      5-min Rain = 0
KSB1 241939Z 23012KT 22/M14 A301 RMK A01 T02181138  RH  008%=      5-min Rain = 0
KSB1 241940Z 22010KT 22/M14 A3011 RMK A01 T02161142  RH  008%=      5-min Rain = 0
KSB1 241941Z 22007KT 22/M14 A3011 RMK A01 T02151142  RH  008%=      5-min Rain = 0
KSB1 241942Z 22007KT 21/M14 A301 RMK A01 T02141144  RH  008%=      5-min Rain = 0
KSB1 241943Z 20006KT 21/M14 A301 RMK A01 T02131144  RH  008%=      5-min Rain = 0
KSB1 241944Z 22007KT 21/M14 A301 RMK A01 T02121144  RH  008%=      5-min Rain = 0
KSB1 241945Z 23006KT 21/M14 A301 RMK A01 T02141140  RH  008%=      5-min Rain = 0
KSB1 241946Z 22006KT 22/M14 A301 RMK A01 T02151141  RH  008%=      5-min Rain = 0
KSB1 241947Z 23010KT 22/M14 A301 RMK A01 T02181135  RH  008%=      5-min Rain = 0
KSB1 241948Z 22012KT 22/M14 A301 RMK A01 T02211139  RH  008%=      5-min Rain = 0
KSB1 241949Z 21013KT 22/M14 A301 RMK A01 T02211142  RH  008%=      5-min Rain = 0
KSB1 241950Z 20011KT 22/M14 A301 RMK A01 T02191144  RH  008%=      5-min Rain = 0
KSB1 241951Z 21011KT 22/M14 A301 RMK A01 T02181142  RH  008%=      5-min Rain = 0
KSB1 241952Z 22011KT 22/M14 A301 RMK A01 T02201139  RH  008%=      5-min Rain = 0
KSB1 241953Z 21009KT 22/M14 A301 RMK A01 T02221141  RH  008%=      5-min Rain = 0
KSB1 241954Z 20007KT 22/M14 A301 RMK A01 T02181144  RH  008%=      5-min Rain = 0
KSB1 241955Z 22011KT 22/M14 A301 RMK A01 T02211138  RH  008%=      5-min Rain = 0
KSB1 241956Z 22009KT 22/M14 A301 RMK A01 T02221142  RH  008%=      5-min Rain = 0
KSB1 241957Z 21011KT 22/M14 A301 RMK A01 T02201143  RH  008%=      5-min Rain = 0
KSB1 241958Z 21009KT 22/M15 A301 RMK A01 T02191148  RH  007%=      5-min Rain = 0
KSB1 241959Z 23006KT 22/M15 A301 RMK A01 T02171149  RH  007%=      5-min Rain = 0
KSB1 242000Z 22007KT 22/M15 A3009 RMK A01 T02171150  RH  007%=      5-min Rain = 0
KSB1 242001Z 20009KT 22/M15 A3009 RMK A01 T02171147  RH  008%=      5-min Rain = 0
KSB1 242002Z 21006KT 22/M15 A3009 RMK A01 T02151150  RH  007%=      5-min Rain = 0
KSB1 242003Z 22004KT 21/M15 A3009 RMK A01 T02141148  RH  008%=      5-min Rain = 0
KSB1 242004Z 25007KT 22/M15 A3009 RMK A01 T02181145  RH  008%=      5-min Rain = 0
KSB1 242005Z 23008KT 22/M14 A3009 RMK A01 T02201143  RH  008%=      5-min Rain = 0
KSB1 242006Z 22011KT 22/M15 A3009 RMK A01 T02211145  RH  008%=      5-min Rain = 0
KSB1 242007Z 21012KT 22/M15 A3009 RMK A01 T02191150  RH  007%=      5-min Rain = 0
KSB1 242008Z 21014KT 22/M15 A3009 RMK A01 T02171150  RH  007%=      5-min Rain = 0
KSB1 242009Z 22013KT 22/M15 A3009 RMK A01 T02181145  RH  008%=      5-min Rain = 0
KSB1 242010Z 23012KT 22/M15 A3009 RMK A01 T02181148  RH  007%=      5-min Rain = 0
KSB1 242011Z 22013KT 22/M15 A3009 RMK A01 T02181150  RH  007%=      5-min Rain = 0
KSB1 242012Z 22010KT 22/M15 A3009 RMK A01 T02181151  RH  007%=      5-min Rain = 0
KSB1 242013Z 21008KT 22/M15 A3009 RMK A01 T02181152  RH  007%=      5-min Rain = 0
KSB1 242014Z 20012KT 22/M15 A3009 RMK A01 T02171152  RH  007%=      5-min Rain = 0
KSB1 242015Z 21011KT 22/M15 A3009 RMK A01 T02191147  RH  007%=      5-min Rain = 0
KSB1 242016Z 23012KT 22/M14 A3009 RMK A01 T02221143  RH  008%=      5-min Rain = 0
KSB1 242017Z 24012KT 23/M14 A3009 RMK A01 T02261141  RH  007%=      5-min Rain = 0
KSB1 242018Z 23013KT 23/M15 A3009 RMK A01 T02251145  RH  007%=      5-min Rain = 0
KSB1 242019Z 22012KT 22/M15 A3009 RMK A01 T02211148  RH  007%=      5-min Rain = 0
KSB1 242020Z 22012KT 22/M15 A3009 RMK A01 T02171149  RH  007%=      5-min Rain = 0
KSB1 242021Z 22010KT 22/M15 A3009 RMK A01 T02171147  RH  008%=      5-min Rain = 0
KSB1 242022Z 23010KT 22/M15 A3009 RMK A01 T02201146  RH  008%=      5-min Rain = 0
KSB1 242023Z 21007KT 22/M15 A3009 RMK A01 T02191150  RH  007%=      5-min Rain = 0
KSB1 242024Z 22010KT 22/M15 A3008 RMK A01 T02181145  RH  008%=      5-min Rain = 0
KSB1 242025Z 22008KT 22/M14 A3008 RMK A01 T02191143  RH  008%=      5-min Rain = 0
KSB1 242026Z 21006KT 22/M15 A3008 RMK A01 T02161147  RH  008%=      5-min Rain = 0
KSB1 242027Z 22007KT 21/M15 A3008 RMK A01 T02141145  RH  008%=      5-min Rain = 0
KSB1 242028Z 22006KT 22/M14 A3008 RMK A01 T02161142  RH  008%=      5-min Rain = 0
KSB1 242029Z 22005KT 22/M14 A3008 RMK A01 T02181143  RH  008%=      5-min Rain = 0
KSB1 242030Z 21003KT 22/M15 A3008 RMK A01 T02181145  RH  008%=      5-min Rain = 0
KSB1 242031Z 22004KT 22/M14 A3008 RMK A01 T02171144  RH  008%=      5-min Rain = 0
KSB1 242032Z 23005KT 22/M14 A3008 RMK A01 T02181141  RH  008%=      5-min Rain = 0
KSB1 242033Z 26008KT 22/M14 A3008 RMK A01 T02191141  RH  008%=      5-min Rain = 0
KSB1 242034Z 27005KT 22/M15 A3008 RMK A01 T02191145  RH  008%=      5-min Rain = 0
KSB1 242035Z 24007KT 22/M14 A3008 RMK A01 T02181143  RH  008%=      5-min Rain = 0
KSB1 242036Z 22009KT 22/M14 A3008 RMK A01 T02231136  RH  008%=      5-min Rain = 0
KSB1 242037Z 21012G17KT 23/M14 A3008 RMK A01 T02261136  RH  008%=      5-min Rain = 0
KSB1 242038Z 20014KT 23/M14 A3008 RMK A01 T02271137  RH  008%=      5-min Rain = 0
KSB1 242039Z 20014KT 22/M14 A3008 RMK A01 T02241138  RH  008%=      5-min Rain = 0
KSB1 242040Z 20012G17KT 22/M14 A3008 RMK A01 T02231138  RH  008%=      5-min Rain = 0
KSB1 242041Z 21011KT 22/M14 A3008 RMK A01 T02231140  RH  008%=      5-min Rain = 0
KSB1 242042Z 22009KT 22/M14 A3008 RMK A01 T02211142  RH  008%=      5-min Rain = 0
KSB1 242043Z 21008KT 22/M14 A3008 RMK A01 T02211140  RH  008%=      5-min Rain = 0
KSB1 242044Z 21012KT 22/M14 A3008 RMK A01 T02241136  RH  008%=      5-min Rain = 0
KSB1 242045Z 20009KT 22/M14 A3008 RMK A01 T02241140  RH  008%=      5-min Rain = 0
KSB1 242046Z 20010KT 22/M14 A3008 RMK A01 T02211140  RH  008%=      5-min Rain = 0
KSB1 242047Z 21007KT 22/M14 A3007 RMK A01 T02201141  RH  008%=      5-min Rain = 0
KSB1 242048Z 20007KT 22/M14 A3007 RMK A01 T02171141  RH  008%=      5-min Rain = 0
KSB1 242049Z 18011KT 22/M14 A3007 RMK A01 T02191135  RH  008%=      5-min Rain = 0
KSB1 242050Z 19008KT 22/M14 A3007 RMK A01 T02211137  RH  008%=      5-min Rain = 0
KSB1 242051Z 22011KT 22/M14 A3007 RMK A01 T02221135  RH  008%=      5-min Rain = 0
KSB1 242052Z 23012KT 22/M14 A3007 RMK A01 T02231137  RH  008%=      5-min Rain = 0
KSB1 242053Z 24007KT 22/M14 A3007 RMK A01 T02221141  RH  008%=      5-min Rain = 0
KSB1 242054Z 23006KT 22/M14 A3007 RMK A01 T02191142  RH  008%=      5-min Rain = 0
KSB1 242055Z 25006KT 22/M14 A3007 RMK A01 T02201139  RH  008%=      5-min Rain = 0
KSB1 242056Z 26005KT 22/M14 A3007 RMK A01 T02211138  RH  008%=      5-min Rain = 0
KSB1 242057Z 25008KT 22/M14 A3007 RMK A01 T02211138  RH  008%=      5-min Rain = 0
KSB1 242058Z 23007KT 22/M14 A3007 RMK A01 T02221137  RH  008%=      5-min Rain = 0
KSB1 242059Z 22006KT 22/M14 A3007 RMK A01 T02231138  RH  008%=      5-min Rain = 0
KSB1 242100Z 20010KT 23/M14 A3007 RMK A01 T02261135  RH  008%=      5-min Rain = 0
KSB1 242101Z 20007KT 23/M14 A3007 RMK A01 T02261135  RH  008%=      5-min Rain = 0
KSB1 242102Z 20009KT 23/M14 A3007 RMK A01 T02251137  RH  008%=      5-min Rain = 0
KSB1 242103Z 21006KT 22/M14 A3007 RMK A01 T02221141  RH  008%=      5-min Rain = 0
KSB1 242104Z 19010KT 22/M14 A3007 RMK A01 T02191141  RH  008%=      5-min Rain = 0
KSB1 242105Z 19012KT 22/M14 A3007 RMK A01 T02221137  RH  008%=      5-min Rain = 0
KSB1 242106Z 19013KT 23/M14 A3007 RMK A01 T02261138  RH  008%=      5-min Rain = 0
KSB1 242107Z 19007KT 23/M14 A3007 RMK A01 T02261141  RH  008%=      5-min Rain = 0
KSB1 242108Z 17011KT 22/M14 A3007 RMK A01 T02241142  RH  008%=      5-min Rain = 0
KSB1 242109Z 19012KT 23/M14 A3006 RMK A01 T02251139  RH  008%=      5-min Rain = 0
KSB1 242110Z 21012KT 23/M14 A3006 RMK A01 T02261137  RH  008%=      5-min Rain = 0
KSB1 242111Z 21009KT 23/M14 A3007 RMK A01 T02261139  RH  008%=      5-min Rain = 0
KSB1 242112Z 19008G13KT 23/M14 A3007 RMK A01 T02251137  RH  008%=      5-min Rain = 0
KSB1 242113Z 20006KT 22/M14 A3007 RMK A01 T02241141  RH  008%=      5-min Rain = 0
KSB1 242114Z 20005KT 22/M14 A3007 RMK A01 T02221143  RH  008%=      5-min Rain = 0
KSB1 242115Z 23007G12KT 22/M14 A3006 RMK A01 T02211142  RH  008%=      5-min Rain = 0
KSB1 242116Z 20011G16KT 22/M14 A3006 RMK A01 T02241138  RH  008%=      5-min Rain = 0
KSB1 242117Z 21012KT 23/M14 A3006 RMK A01 T02291139  RH  008%=      5-min Rain = 0
KSB1 242118Z 21014KT 23/M14 A3006 RMK A01 T02281142  RH  007%=      5-min Rain = 0
KSB1 242119Z 21014KT 23/M14 A3006 RMK A01 T02251143  RH  007%=      5-min Rain = 0
KSB1 242120Z 21013KT 23/M14 A3006 RMK A01 T02261142  RH  007%=      5-min Rain = 0
KSB1 242121Z 22011KT 23/M14 A3006 RMK A01 T02251144  RH  007%=      5-min Rain = 0
KSB1 242122Z 22011G16KT 23/M14 A3006 RMK A01 T02251144  RH  007%=      5-min Rain = 0
KSB1 242123Z 23013KT 23/M14 A3006 RMK A01 T02261142  RH  007%=      5-min Rain = 0
KSB1 242124Z 23010KT 23/M14 A3006 RMK A01 T02261143  RH  007%=      5-min Rain = 0
KSB1 242125Z 24010KT 23/M14 A3006 RMK A01 T02261143  RH  007%=      5-min Rain = 0
KSB1 242126Z 23008KT 23/M14 A3006 RMK A01 T02251143  RH  007%=      5-min Rain = 0
KSB1 242127Z 21011KT 23/M14 A3006 RMK A01 T02271140  RH  008%=      5-min Rain = 0
KSB1 242128Z 20010KT 23/M14 A3006 RMK A01 T02261140  RH  008%=      5-min Rain = 0
KSB1 242129Z 20007KT 23/M14 A3006 RMK A01 T02251142  RH  008%=      5-min Rain = 0
KSB1 242130Z 22009KT 22/M14 A3006 RMK A01 T02231141  RH  008%=      5-min Rain = 0
KSB1 242131Z 22011KT 22/M14 A3006 RMK A01 T02231141  RH  008%=      5-min Rain = 0
KSB1 242132Z 22008KT 22/M14 A3006 RMK A01 T02241139  RH  008%=      5-min Rain = 0
KSB1 242133Z 23009KT 23/M14 A3006 RMK A01 T02271136  RH  008%=      5-min Rain = 0
KSB1 242134Z 21006KT 23/M14 A3006 RMK A01 T02281138  RH  008%=      5-min Rain = 0
KSB1 242135Z 23005KT 23/M14 A3006 RMK A01 T02291136  RH  008%=      5-min Rain = 0
KSB1 242136Z 22010KT 23/M14 A3006 RMK A01 T02291139  RH  008%=      5-min Rain = 0
KSB1 242137Z 22009G14KT 23/M14 A3006 RMK A01 T02271140  RH  008%=      5-min Rain = 0
KSB1 242138Z 23009KT 22/M14 A3006 RMK A01 T02241138  RH  008%=      5-min Rain = 0
KSB1 242139Z 24010KT 23/M14 A3006 RMK A01 T02261136  RH  008%=      5-min Rain = 0
KSB1 242140Z 25012KT 23/M14 A3006 RMK A01 T02271137  RH  008%=      5-min Rain = 0
KSB1 242141Z 23012KT 23/M14 A3006 RMK A01 T02271139  RH  008%=      5-min Rain = 0
KSB1 242142Z 23010KT 23/M14 A3006 RMK A01 T02251138  RH  008%=      5-min Rain = 0
KSB1 242143Z 23008KT 22/M14 A3006 RMK A01 T02231139  RH  008%=      5-min Rain = 0
KSB1 242144Z 22009KT 22/M14 A3006 RMK A01 T02241137  RH  008%=      5-min Rain = 0
KSB1 242145Z 23010KT 23/M14 A3006 RMK A01 T02251137  RH  008%=      5-min Rain = 0
KSB1 242146Z 23009KT 22/M14 A3006 RMK A01 T02241140  RH  008%=      5-min Rain = 0
KSB1 242147Z 24011KT 22/M14 A3006 RMK A01 T02231139  RH  008%=      5-min Rain = 0
KSB1 242148Z 25011KT 22/M14 A3006 RMK A01 T02241138  RH  008%=      5-min Rain = 0
KSB1 242149Z 25010KT 22/M14 A3006 RMK A01 T02221139  RH  008%=      5-min Rain = 0
KSB1 242150Z 24012KT 22/M14 A3006 RMK A01 T02201140  RH  008%=      5-min Rain = 0
KSB1 242151Z 24011KT 22/M14 A3006 RMK A01 T02191138  RH  008%=      5-min Rain = 0
KSB1 242152Z 23009KT 22/M14 A3006 RMK A01 T02181138  RH  008%=      5-min Rain = 0
KSB1 242153Z 24009KT 22/M14 A3006 RMK A01 T02181138  RH  008%=      5-min Rain = 0
KSB1 242154Z 25007KT 22/M14 A3006 RMK A01 T02191138  RH  008%=      5-min Rain = 0
KSB1 242155Z 24008KT 22/M14 A3006 RMK A01 T02191135  RH  008%=      5-min Rain = 0
KSB1 242156Z 23006KT 22/M14 A3006 RMK A01 T02191136  RH  008%=      5-min Rain = 0
KSB1 242157Z 24011KT 22/M14 A3006 RMK A01 T02191136  RH  008%=      5-min Rain = 0
KSB1 242158Z 23009KT 22/M14 A3006 RMK A01 T02191139  RH  008%=      5-min Rain = 0
KSB1 242159Z 24013KT 22/M14 A3006 RMK A01 T02181139  RH  008%=      5-min Rain = 0
KSB1 242200Z 23009KT 22/M14 A3006 RMK A01 T02181140  RH  008%=      5-min Rain = 0
KSB1 242201Z 23008KT 22/M14 A3006 RMK A01 T02161141  RH  008%=      5-min Rain = 0
KSB1 242202Z 23008KT 22/M14 A3006 RMK A01 T02151142  RH  008%=      5-min Rain = 0
KSB1 242203Z 23009KT 22/M14 A3006 RMK A01 T02151139  RH  008%=      5-min Rain = 0
KSB1 242204Z 24010KT 22/M14 A3006 RMK A01 T02171139  RH  008%=      5-min Rain = 0
KSB1 242205Z 24009KT 22/M14 A3006 RMK A01 T02171139  RH  008%=      5-min Rain = 0
KSB1 242206Z 24008KT 22/M14 A3006 RMK A01 T02191138  RH  008%=      5-min Rain = 0
KSB1 242207Z 24009KT 22/M14 A3006 RMK A01 T02201138  RH  008%=      5-min Rain = 0
KSB1 242208Z 24008KT 22/M14 A3005 RMK A01 T02201139  RH  008%=      5-min Rain = 0
KSB1 242209Z 24006KT 22/M14 A3005 RMK A01 T02211136  RH  008%=      5-min Rain = 0
KSB1 242210Z 24007KT 23/M13 A3005 RMK A01 T02261132  RH  008%=      5-min Rain = 0
KSB1 242211Z 23010KT 23/M14 A3005 RMK A01 T02271135  RH  008%=      5-min Rain = 0
KSB1 242212Z 24008KT 23/M14 A3005 RMK A01 T02261136  RH  008%=      5-min Rain = 0
KSB1 242213Z 24009KT 23/M14 A3005 RMK A01 T02251136  RH  008%=      5-min Rain = 0
KSB1 242214Z 24009KT 22/M14 A3005 RMK A01 T02241138  RH  008%=      5-min Rain = 0
KSB1 242215Z 23007KT 22/M14 A3005 RMK A01 T02221139  RH  008%=      5-min Rain = 0
KSB1 242216Z 25005KT 22/M14 A3005 RMK A01 T02201138  RH  008%=      5-min Rain = 0
KSB1 242217Z 25006KT 22/M14 A3005 RMK A01 T02191138  RH  008%=      5-min Rain = 0
KSB1 242218Z 25006KT 22/M14 A3005 RMK A01 T02191135  RH  008%=      5-min Rain = 0
KSB1 242219Z 25007KT 22/M14 A3005 RMK A01 T02191136  RH  008%=      5-min Rain = 0
KSB1 242220Z 23007KT 22/M14 A3005 RMK A01 T02181136  RH  008%=      5-min Rain = 0
KSB1 242221Z 20005KT 22/M14 A3005 RMK A01 T02171136  RH  008%=      5-min Rain = 0
KSB1 242222Z 18005KT 22/M13 A3005 RMK A01 T02171133  RH  008%=      5-min Rain = 0
KSB1 242223Z 19005KT 22/M14 A3005 RMK A01 T02171136  RH  008%=      5-min Rain = 0
KSB1 242224Z 17005KT 22/M14 A3005 RMK A01 T02171136  RH  008%=      5-min Rain = 0
KSB1 242225Z 17004KT 22/M14 A3005 RMK A01 T02171138  RH  008%=      5-min Rain = 0
KSB1 242226Z 19005KT 22/M14 A3005 RMK A01 T02171138  RH  008%=      5-min Rain = 0
KSB1 242227Z 20006KT 22/M14 A3005 RMK A01 T02161137  RH  008%=      5-min Rain = 0
KSB1 242228Z 20006KT 22/M14 A3005 RMK A01 T02161138  RH  008%=      5-min Rain = 0
KSB1 242229Z 21006KT 22/M14 A3005 RMK A01 T02161137  RH  008%=      5-min Rain = 0
KSB1 242230Z 22004KT 22/M14 A3005 RMK A01 T02161135  RH  008%=      5-min Rain = 0
KSB1 242231Z 21002KT 22/M14 A3005 RMK A01 T02161138  RH  008%=      5-min Rain = 0
KSB1 242232Z 22001KT 22/M14 A3005 RMK A01 T02161138  RH  008%=      5-min Rain = 0
KSB1 242233Z 21002KT 22/M14 A3005 RMK A01 T02161136  RH  008%=      5-min Rain = 0
KSB1 242234Z 20003KT 22/M14 A3005 RMK A01 T02171136  RH  008%=      5-min Rain = 0
KSB1 242235Z 19004KT 22/M14 A3005 RMK A01 T02171135  RH  008%=      5-min Rain = 0
KSB1 242236Z 19004KT 22/M14 A3005 RMK A01 T02181136  RH  008%=      5-min Rain = 0
KSB1 242237Z 20004KT 22/M14 A3005 RMK A01 T02181136  RH  008%=      5-min Rain = 0
KSB1 242238Z 20004KT 22/M13 A3004 RMK A01 T02191134  RH  008%=      5-min Rain = 0
KSB1 242239Z 23005KT 22/M14 A3004 RMK A01 T02211137  RH  008%=      5-min Rain = 0
KSB1 242240Z 23003KT 22/M14 A3004 RMK A01 T02241137  RH  008%=      5-min Rain = 0
KSB1 242241Z 19005KT 22/M14 A3004 RMK A01 T02241139  RH  008%=      5-min Rain = 0
KSB1 242242Z 21005KT 22/M14 A3004 RMK A01 T02241140  RH  008%=      5-min Rain = 0
KSB1 242243Z 18005KT 22/M14 A3004 RMK A01 T02241141  RH  008%=      5-min Rain = 0
KSB1 242244Z 19004KT 22/M14 A3004 RMK A01 T02231140  RH  008%=      5-min Rain = 0
KSB1 242245Z 24006KT 22/M14 A3004 RMK A01 T02231140  RH  008%=      5-min Rain = 0
KSB1 242246Z 26007KT 22/M14 A3004 RMK A01 T02241138  RH  008%=      5-min Rain = 0
KSB1 242247Z 24006KT 23/M14 A3004 RMK A01 T02251138  RH  008%=      5-min Rain = 0
KSB1 242248Z 25006KT 23/M14 A3004 RMK A01 T02251140  RH  008%=      5-min Rain = 0
KSB1 242249Z 24005KT 22/M14 A3004 RMK A01 T02241141  RH  008%=      5-min Rain = 0
KSB1 242250Z 25006KT 22/M14 A3004 RMK A01 T02241140  RH  008%=      5-min Rain = 0
KSB1 242251Z 24007KT 22/M14 A3004 RMK A01 T02231141  RH  008%=      5-min Rain = 0
KSB1 242252Z 23005KT 22/M14 A3004 RMK A01 T02231140  RH  008%=      5-min Rain = 0
KSB1 242253Z 25003KT 22/M14 A3004 RMK A01 T02221142  RH  008%=      5-min Rain = 0
KSB1 242254Z 24004KT 22/M14 A3004 RMK A01 T02221138  RH  008%=      5-min Rain = 0
KSB1 242255Z 21006KT 22/M14 A3004 RMK A01 T02231139  RH  008%=      5-min Rain = 0
KSB1 242256Z 20004KT 22/M14 A3004 RMK A01 T02231140  RH  008%=      5-min Rain = 0
KSB1 242257Z 20007KT 22/M14 A3004 RMK A01 T02221140  RH  008%=      5-min Rain = 0
KSB1 242258Z 22008KT 22/M14 A3004 RMK A01 T02221137  RH  008%=      5-min Rain = 0
KSB1 242259Z 23008KT 22/M14 A3004 RMK A01 T02221136  RH  008%=      5-min Rain = 0
KSB1 242300Z 21009KT 22/M14 A3004 RMK A01 T02221136  RH  008%=      5-min Rain = 0
KSB1 242301Z 20010KT 22/M14 A3004 RMK A01 T02231135  RH  008%=      5-min Rain = 0
KSB1 242302Z 20010KT 22/M14 A3004 RMK A01 T02231136  RH  008%=      5-min Rain = 0
KSB1 242303Z 19009KT 22/M14 A3004 RMK A01 T02221138  RH  008%=      5-min Rain = 0
KSB1 242304Z 19009KT 22/M14 A3004 RMK A01 T02211137  RH  008%=      5-min Rain = 0
KSB1 242305Z 19008KT 22/M14 A3004 RMK A01 T02211138  RH  008%=      5-min Rain = 0
KSB1 242306Z 19007KT 22/M14 A3004 RMK A01 T02211137  RH  008%=      5-min Rain = 0
KSB1 242307Z 19007KT 22/M14 A3004 RMK A01 T02211138  RH  008%=      5-min Rain = 0
KSB1 242308Z 20006KT 22/M14 A3004 RMK A01 T02211136  RH  008%=      5-min Rain = 0
KSB1 242309Z 19007KT 22/M14 A3004 RMK A01 T02211135  RH  008%=      5-min Rain = 0
KSB1 242310Z 19008KT 22/M14 A3004 RMK A01 T02221135  RH  008%=      5-min Rain = 0
KSB1 242311Z 19006KT 22/M14 A3004 RMK A01 T02221135  RH  008%=      5-min Rain = 0
KSB1 242312Z 20008KT 22/M13 A3004 RMK A01 T02231133  RH  008%=      5-min Rain = 0
KSB1 242313Z 20008KT 22/M14 A3004 RMK A01 T02241136  RH  008%=      5-min Rain = 0
KSB1 242314Z 18008KT 23/M14 A3004 RMK A01 T02251136  RH  008%=      5-min Rain = 0
KSB1 242315Z 19007KT 23/M14 A3004 RMK A01 T02271137  RH  008%=      5-min Rain = 0
KSB1 242316Z 21007KT 23/M14 A3004 RMK A01 T02291137  RH  008%=      5-min Rain = 0
KSB1 242317Z 23008KT 23/M14 A3004 RMK A01 T02301139  RH  007%=      5-min Rain = 0
KSB1 242318Z 24008KT 23/M14 A3004 RMK A01 T02301138  RH  008%=      5-min Rain = 0
KSB1 242319Z 22007KT 23/M14 A3003 RMK A01 T02311139  RH  007%=      5-min Rain = 0
KSB1 242320Z 24009KT 23/M14 A3003 RMK A01 T02301141  RH  007%=      5-min Rain = 0
KSB1 242321Z 27008KT 23/M14 A3003 RMK A01 T02311138  RH  007%=      5-min Rain = 0
KSB1 242322Z 28010KT 23/M14 A3003 RMK A01 T02341138  RH  007%=      5-min Rain = 0
KSB1 242323Z 26009KT 23/M14 A3003 RMK A01 T02341139  RH  007%=      5-min Rain = 0
KSB1 242324Z 25009KT 23/M14 A3003 RMK A01 T02341137  RH  007%=      5-min Rain = 0
KSB1 242325Z 21007KT 24/M14 A3003 RMK A01 T02351136  RH  007%=      5-min Rain = 0
KSB1 242326Z 20008KT 23/M14 A3003 RMK A01 T02341137  RH  007%=      5-min Rain = 0
KSB1 242327Z 21009KT 23/M14 A3003 RMK A01 T02321138  RH  007%=      5-min Rain = 0
KSB1 242328Z 22010KT 23/M14 A3003 RMK A01 T02331135  RH  008%=      5-min Rain = 0
KSB1 242329Z 22012KT 24/M13 A3003 RMK A01 T02351133  RH  008%=      5-min Rain = 0
KSB1 242330Z 21012KT 24/M14 A3003 RMK A01 T02361135  RH  007%=      5-min Rain = 0
KSB1 242331Z 22009KT 24/M14 A3003 RMK A01 T02361135  RH  007%=      5-min Rain = 0
KSB1 242332Z 23009KT 24/M13 A3003 RMK A01 T02371134  RH  007%=      5-min Rain = 0
KSB1 242333Z 24010KT 24/M14 A3003 RMK A01 T02361136  RH  007%=      5-min Rain = 0
KSB1 242334Z 24008KT 23/M14 A3003 RMK A01 T02341137  RH  007%=      5-min Rain = 0
KSB1 242335Z 22012G18KT 24/M14 A3003 RMK A01 T02351135  RH  008%=      5-min Rain = 0
KSB1 242336Z 21009KT 24/M13 A3003 RMK A01 T02361134  RH  008%=      5-min Rain = 0
KSB1 242337Z 19009KT 24/M14 A3003 RMK A01 T02361136  RH  007%=      5-min Rain = 0
KSB1 242338Z 21009KT 23/M14 A3003 RMK A01 T02341138  RH  007%=      5-min Rain = 0
KSB1 242339Z 22011KT 23/M14 A3003 RMK A01 T02331138  RH  007%=      5-min Rain = 0
KSB1 242340Z 24011KT 23/M14 A3003 RMK A01 T02331137  RH  007%=      5-min Rain = 0
KSB1 242341Z 23011KT 23/M14 A3003 RMK A01 T02331138  RH  007%=      5-min Rain = 0
KSB1 242342Z 22012KT 23/M14 A3003 RMK A01 T02321138  RH  007%=      5-min Rain = 0
KSB1 242343Z 21012KT 23/M14 A3003 RMK A01 T02331135  RH  008%=      5-min Rain = 0
KSB1 242344Z 22011KT 23/M14 A3003 RMK A01 T02331136  RH  008%=      5-min Rain = 0
KSB1 242345Z 22012KT 23/M14 A3003 RMK A01 T02321136  RH  008%=      5-min Rain = 0
KSB1 242346Z 22012KT 23/M14 A3003 RMK A01 T02321137  RH  008%=      5-min Rain = 0
KSB1 242347Z 23011KT 23/M14 A3003 RMK A01 T02311137  RH  008%=      5-min Rain = 0
KSB1 242348Z 23010KT 23/M14 A3003 RMK A01 T02311137  RH  008%=      5-min Rain = 0
KSB1 242349Z 24012KT 23/M14 A3003 RMK A01 T02321136  RH  008%=      5-min Rain = 0
KSB1 242350Z 24012KT 23/M14 A3003 RMK A01 T02321136  RH  008%=      5-min Rain = 0
KSB1 242351Z 24013KT 23/M14 A3003 RMK A01 T02311137  RH  008%=      5-min Rain = 0
KSB1 242352Z 23010KT 23/M14 A3003 RMK A01 T02301138  RH  008%=      5-min Rain = 0
KSB1 242353Z 21009KT 23/M14 A3003 RMK A01 T02291139  RH  007%=      5-min Rain = 0
KSB1 242354Z 23008KT 23/M14 A3003 RMK A01 T02281139  RH  008%=      5-min Rain = 0
KSB1 242355Z 23006KT 23/M14 A3003 RMK A01 T02281139  RH  008%=      5-min Rain = 0
KSB1 242356Z 22007KT 23/M14 A3003 RMK A01 T02271138  RH  008%=      5-min Rain = 0
KSB1 242357Z 23010KT 23/M14 A3003 RMK A01 T02291135  RH  008%=      5-min Rain = 0
KSB1 242358Z 23011KT 23/M14 A3003 RMK A01 T02291136  RH  008%=      5-min Rain = 0
KSB1 242359Z 22010KT 23/M14 A3003 RMK A01 T02281137  RH  008%=      5-min Rain = 0
KSB1 250000Z 22009KT 23/M14 A3003 RMK A01 T02271137  RH  008%=      5-min Rain = 0
KSB1 250001Z 23010KT 23/M14 A3003 RMK A01 T02271136  RH  008%=      5-min Rain = 0
KSB1 250002Z 23010KT 23/M14 A3003 RMK A01 T02271138  RH  008%=      5-min Rain = 0
KSB1 250003Z 23007KT 23/M14 A3003 RMK A01 T02261139  RH  008%=      5-min Rain = 0
KSB1 250004Z 23007KT 23/M14 A3003 RMK A01 T02251138  RH  008%=      5-min Rain = 0
KSB1 250005Z 25010KT 23/M14 A3003 RMK A01 T02251137  RH  008%=      5-min Rain = 0
KSB1 250006Z 23009KT 23/M14 A3004 RMK A01 T02261136  RH  008%=      5-min Rain = 0
KSB1 250007Z 24011KT 23/M13 A3004 RMK A01 T02261134  RH  008%=      5-min Rain = 0
KSB1 250008Z 24010KT 23/M14 A3004 RMK A01 T02261135  RH  008%=      5-min Rain = 0
KSB1 250009Z 25008KT 23/M14 A3004 RMK A01 T02261136  RH  008%=      5-min Rain = 0
KSB1 250010Z 24008KT 23/M14 A3004 RMK A01 T02251136  RH  008%=      5-min Rain = 0
KSB1 250011Z 23007KT 23/M14 A3004 RMK A01 T02251135  RH  008%=      5-min Rain = 0
KSB1 250012Z 24007KT 23/M13 A3004 RMK A01 T02251134  RH  008%=      5-min Rain = 0
KSB1 250013Z 24006KT 23/M13 A3004 RMK A01 T02251134  RH  008%=      5-min Rain = 0
KSB1 250014Z 24007KT 23/M13 A3004 RMK A01 T02251133  RH  008%=      5-min Rain = 0
KSB1 250015Z 24005KT 23/M13 A3004 RMK A01 T02261134  RH  008%=      5-min Rain = 0
KSB1 250016Z 24006KT 23/M13 A3004 RMK A01 T02251133  RH  008%=      5-min Rain = 0
KSB1 250017Z 24008KT 22/M13 A3004 RMK A01 T02241133  RH  008%=      5-min Rain = 0
KSB1 250018Z 24008KT 22/M14 A3004 RMK A01 T02221135  RH  008%=      5-min Rain = 0
KSB1 250019Z 24007KT 22/M14 A3004 RMK A01 T02201136  RH  008%=      5-min Rain = 0
KSB1 250020Z 23007KT 22/M14 A3004 RMK A01 T02181136  RH  008%=      5-min Rain = 0
KSB1 250021Z 24006KT 22/M14 A3004 RMK A01 T02171135  RH  008%=      5-min Rain = 0
KSB1 250022Z 23006KT 22/M14 A3004 RMK A01 T02151135  RH  008%=      5-min Rain = 0
KSB1 250023Z 24006KT 21/M13 A3004 RMK A01 T02141134  RH  009%=      5-min Rain = 0
KSB1 250024Z 24005KT 21/M13 A3004 RMK A01 T02131134  RH  009%=      5-min Rain = 0
KSB1 250025Z 23004KT 21/M13 A3004 RMK A01 T02121133  RH  009%=      5-min Rain = 0
KSB1 250026Z 23005KT 21/M13 A3004 RMK A01 T02111132  RH  009%=      5-min Rain = 0
KSB1 250027Z 24005KT 21/M13 A3004 RMK A01 T02101132  RH  009%=      5-min Rain = 0
KSB1 250028Z 25006KT 21/M13 A3004 RMK A01 T02081132  RH  009%=      5-min Rain = 0
KSB1 250029Z 26006KT 21/M13 A3004 RMK A01 T02071133  RH  009%=      5-min Rain = 0
KSB1 250030Z 26005KT 21/M13 A3004 RMK A01 T02071132  RH  009%=      5-min Rain = 0
KSB1 250031Z 26005KT 21/M13 A3004 RMK A01 T02061132  RH  009%=      5-min Rain = 0
KSB1 250032Z 26005KT 21/M13 A3004 RMK A01 T02051131  RH  009%=      5-min Rain = 0
KSB1 250033Z 26005KT 20/M13 A3004 RMK A01 T02041130  RH  009%=      5-min Rain = 0
KSB1 250034Z 26005KT 20/M13 A3004 RMK A01 T02031131  RH  009%=      5-min Rain = 0
KSB1 250035Z 26004KT 20/M13 A3004 RMK A01 T02021131  RH  009%=      5-min Rain = 0
KSB1 250036Z 26004KT 20/M13 A3004 RMK A01 T02021130  RH  010%=      5-min Rain = 0
KSB1 250037Z 25003KT 20/M13 A3004 RMK A01 T02011130  RH  010%=      5-min Rain = 0
KSB1 250038Z 24004KT 20/M13 A3004 RMK A01 T02001131  RH  010%=      5-min Rain = 0
KSB1 250039Z 23004KT 20/M13 A3005 RMK A01 T01991129  RH  010%=      5-min Rain = 0
KSB1 250040Z 23003KT 20/M13 A3005 RMK A01 T01961129  RH  010%=      5-min Rain = 0
KSB1 250041Z 22005KT 19/M13 A3005 RMK A01 T01931130  RH  010%=      5-min Rain = 0
KSB1 250042Z 22005KT 19/M13 A3005 RMK A01 T01921132  RH  010%=      5-min Rain = 0
KSB1 250043Z 21006KT 19/M13 A3005 RMK A01 T01921128  RH  010%=      5-min Rain = 0
KSB1 250044Z 18006KT 19/M13 A3005 RMK A01 T01901126  RH  011%=      5-min Rain = 0
KSB1 250045Z 16004KT 19/M13 A3005 RMK A01 T01901125  RH  011%=      5-min Rain = 0
KSB1 250046Z 16003KT 19/M13 A3005 RMK A01 T01891125  RH  011%=      5-min Rain = 0
KSB1 250047Z 17003KT 19/M13 A3005 RMK A01 T01891126  RH  011%=      5-min Rain = 0
KSB1 250048Z 18003KT 19/M13 A3005 RMK A01 T01891126  RH  011%=      5-min Rain = 0
KSB1 250049Z 17003KT 19/M13 A3005 RMK A01 T01901125  RH  011%=      5-min Rain = 0
KSB1 250050Z 16003KT 19/M13 A3005 RMK A01 T01891125  RH  011%=      5-min Rain = 0
KSB1 250051Z 17003KT 19/M13 A3005 RMK A01 T01881127  RH  011%=      5-min Rain = 0
KSB1 250052Z 16003KT 19/M13 A3005 RMK A01 T01891127  RH  011%=      5-min Rain = 0
KSB1 250053Z 16003KT 19/M13 A3005 RMK A01 T01901127  RH  011%=      5-min Rain = 0
KSB1 250054Z 18003KT 19/M13 A3005 RMK A01 T01911126  RH  011%=      5-min Rain = 0
KSB1 250055Z 19002KT 19/M13 A3005 RMK A01 T01911125  RH  011%=      5-min Rain = 0
KSB1 250056Z 19002KT 19/M12 A3006 RMK A01 T01911124  RH  011%=      5-min Rain = 0
KSB1 250057Z 20002KT 19/M13 A3006 RMK A01 T01911126  RH  011%=      5-min Rain = 0
KSB1 250058Z 24001KT 19/M13 A3006 RMK A01 T01911126  RH  011%=      5-min Rain = 0
KSB1 250059Z 27003KT 19/M13 A3006 RMK A01 T01911125  RH  011%=      5-min Rain = 0
KSB1 250100Z 25002KT 19/M12 A3006 RMK A01 T01911124  RH  011%=      5-min Rain = 0
KSB1 250101Z 26002KT 19/M12 A3006 RMK A01 T01911122  RH  011%=      5-min Rain = 0
KSB1 250102Z 27002KT 19/M12 A3006 RMK A01 T01901122  RH  011%=      5-min Rain = 0
KSB1 250103Z 27002KT 19/M12 A3006 RMK A01 T01901124  RH  011%=      5-min Rain = 0
KSB1 250104Z 27001KT 19/M13 A3006 RMK A01 T01921125  RH  011%=      5-min Rain = 0
KSB1 250105Z 28001KT 19/M13 A3006 RMK A01 T01941126  RH  010%=      5-min Rain = 0
KSB1 250106Z 28001KT 20/M13 A3006 RMK A01 T01961126  RH  010%=      5-min Rain = 0
KSB1 250107Z 31000KT 20/M13 A3006 RMK A01 T01981126  RH  010%=      5-min Rain = 0
KSB1 250108Z 05003KT 20/M13 A3006 RMK A01 T01991126  RH  010%=      5-min Rain = 0
KSB1 250109Z 08005KT 20/M12 A3006 RMK A01 T01961118  RH  011%=      5-min Rain = 0
KSB1 250110Z 08005KT 19/M12 A3006 RMK A01 T01901118  RH  011%=      5-min Rain = 0
KSB1 250111Z 08005KT 19/M11 A3006 RMK A01 T01871113  RH  012%=      5-min Rain = 0
KSB1 250112Z 09004KT 19/M11 A3006 RMK A01 T01871110  RH  012%=      5-min Rain = 0
KSB1 250113Z 08004KT 19/M11 A3006 RMK A01 T01881110  RH  012%=      5-min Rain = 0
KSB1 250114Z 10005KT 19/M11 A3006 RMK A01 T01881112  RH  012%=      5-min Rain = 0
KSB1 250115Z 09004KT 19/M11 A3006 RMK A01 T01861111  RH  012%=      5-min Rain = 0
KSB1 250116Z 09004KT 18/M11 A3006 RMK A01 T01841112  RH  012%=      5-min Rain = 0
KSB1 250117Z 10004KT 18/M11 A3006 RMK A01 T01831111  RH  012%=      5-min Rain = 0
KSB1 250118Z 09004KT 18/M11 A3006 RMK A01 T01821110  RH  013%=      5-min Rain = 0
KSB1 250119Z 10004KT 18/M11 A3006 RMK A01 T01811110  RH  013%=      5-min Rain = 0
KSB1 250120Z 10004KT 18/M11 A3007 RMK A01 T01791109  RH  013%=      5-min Rain = 0
KSB1 250121Z 12004KT 18/M11 A3007 RMK A01 T01781109  RH  013%=      5-min Rain = 0
KSB1 250122Z 10003KT 18/M11 A3007 RMK A01 T01771108  RH  013%=      5-min Rain = 0
KSB1 250123Z 12003KT 18/M11 A3007 RMK A01 T01771108  RH  013%=      5-min Rain = 0
KSB1 250124Z 11005KT 18/M11 A3007 RMK A01 T01761108  RH  013%=      5-min Rain = 0
KSB1 250125Z 12005KT 18/M11 A3007 RMK A01 T01761107  RH  013%=      5-min Rain = 0
KSB1 250126Z 12004KT 18/M11 A3007 RMK A01 T01761105  RH  014%=      5-min Rain = 0
KSB1 250127Z 12004KT 18/M11 A3007 RMK A01 T01761105  RH  014%=      5-min Rain = 0
KSB1 250128Z 12005KT 17/M11 A3007 RMK A01 T01741106  RH  014%=      5-min Rain = 0
KSB1 250129Z 10005KT 17/M11 A3007 RMK A01 T01741105  RH  014%=      5-min Rain = 0
KSB1 250130Z 11005KT 17/M10 A3007 RMK A01 T01741104  RH  014%=      5-min Rain = 0
KSB1 250131Z 13004KT 18/M10 A3007 RMK A01 T01751103  RH  014%=      5-min Rain = 0
KSB1 250132Z 13004KT 18/M10 A3007 RMK A01 T01751103  RH  014%=      5-min Rain = 0
KSB1 250133Z 12004KT 18/M10 A3007 RMK A01 T01751104  RH  014%=      5-min Rain = 0
KSB1 250134Z 12005KT 17/M10 A3007 RMK A01 T01741104  RH  014%=      5-min Rain = 0
KSB1 250135Z 12004KT 17/M10 A3007 RMK A01 T01741102  RH  014%=      5-min Rain = 0
KSB1 250136Z 12004KT 17/M10 A3007 RMK A01 T01731103  RH  014%=      5-min Rain = 0
KSB1 250137Z 12004KT 17/M10 A3007 RMK A01 T01731102  RH  014%=      5-min Rain = 0
KSB1 250138Z 12005KT 17/M10 A3007 RMK A01 T01731102  RH  014%=      5-min Rain = 0
KSB1 250139Z 12004KT 17/M10 A3007 RMK A01 T01721101  RH  014%=      5-min Rain = 0
KSB1 250140Z 12004KT 17/M10 A3007 RMK A01 T01721101  RH  015%=      5-min Rain = 0
KSB1 250141Z 12003KT 17/M10 A3007 RMK A01 T01711101  RH  015%=      5-min Rain = 0
KSB1 250142Z 12004KT 17/M10 A3007 RMK A01 T01701101  RH  015%=      5-min Rain = 0
KSB1 250143Z 12003KT 17/M10 A3007 RMK A01 T01701102  RH  015%=      5-min Rain = 0
KSB1 250144Z 14003KT 17/M10 A3007 RMK A01 T01691102  RH  015%=      5-min Rain = 0
KSB1 250145Z 14003KT 17/M10 A3007 RMK A01 T01691102  RH  015%=      5-min Rain = 0
KSB1 250146Z 14003KT 17/M10 A3007 RMK A01 T01691102  RH  015%=      5-min Rain = 0
KSB1 250147Z 13003KT 17/M10 A3007 RMK A01 T01681102  RH  015%=      5-min Rain = 0
KSB1 250148Z 13002KT 17/M10 A3007 RMK A01 T01681103  RH  015%=      5-min Rain = 0
KSB1 250149Z 13002KT 17/M10 A3007 RMK A01 T01681103  RH  015%=      5-min Rain = 0
KSB1 250150Z 13002KT 17/M10 A3007 RMK A01 T01671103  RH  015%=      5-min Rain = 0
KSB1 250151Z 12002KT 17/M10 A3007 RMK A01 T01671103  RH  015%=      5-min Rain = 0
KSB1 250152Z 12002KT 17/M10 A3007 RMK A01 T01671103  RH  015%=      5-min Rain = 0
KSB1 250153Z 12001KT 17/M10 A3007 RMK A01 T01671103  RH  015%=      5-min Rain = 0
KSB1 250154Z 14001KT 17/M10 A3007 RMK A01 T01671102  RH  015%=      5-min Rain = 0
KSB1 250155Z 15001KT 17/M10 A3007 RMK A01 T01671102  RH  015%=      5-min Rain = 0
KSB1 250156Z 15001KT 17/M10 A3007 RMK A01 T01671103  RH  015%=      5-min Rain = 0
KSB1 250157Z 17001KT 17/M10 A3007 RMK A01 T01681102  RH  015%=      5-min Rain = 0
KSB1 250158Z 17001KT 17/M10 A3007 RMK A01 T01681102  RH  015%=      5-min Rain = 0
KSB1 250159Z 15001KT 17/M10 A3008 RMK A01 T01681101  RH  015%=      5-min Rain = 0
KSB1 250200Z 17000KT 17/M10 A3007 RMK A01 T01681101  RH  015%=      5-min Rain = 0
KSB1 250201Z 15001KT 17/M10 A3007 RMK A01 T01681102  RH  015%=      5-min Rain = 0
KSB1 250202Z 16000KT 17/M10 A3008 RMK A01 T01681102  RH  015%=      5-min Rain = 0
KSB1 250203Z 00000KT 17/M10 A3008 RMK A01 T01681102  RH  015%=      5-min Rain = 0
KSB1 250204Z 00000KT 17/M10 A3008 RMK A01 T01681102  RH  015%=      5-min Rain = 0
KSB1 250205Z 00000KT 17/M10 A3008 RMK A01 T01691102  RH  015%=      5-min Rain = 0
KSB1 250206Z 00000KT 17/M10 A3008 RMK A01 T01681102  RH  015%=      5-min Rain = 0
KSB1 250207Z 14000KT 17/M10 A3008 RMK A01 T01691103  RH  015%=      5-min Rain = 0
KSB1 250208Z 11000KT 17/M10 A3008 RMK A01 T01691103  RH  015%=      5-min Rain = 0
KSB1 250209Z 12000KT 17/M10 A3008 RMK A01 T01681103  RH  015%=      5-min Rain = 0
KSB1 250210Z 12001KT 17/M10 A3008 RMK A01 T01671103  RH  015%=      5-min Rain = 0
KSB1 250211Z 13000KT 17/M10 A3008 RMK A01 T01671104  RH  015%=      5-min Rain = 0
KSB1 250212Z 13001KT 17/M10 A3008 RMK A01 T01671103  RH  015%=      5-min Rain = 0
KSB1 250213Z 13001KT 17/M10 A3008 RMK A01 T01671103  RH  015%=      5-min Rain = 0
KSB1 250214Z 14002KT 17/M10 A3008 RMK A01 T01671104  RH  015%=      5-min Rain = 0
KSB1 250215Z 15002KT 17/M10 A3008 RMK A01 T01671103  RH  015%=      5-min Rain = 0
KSB1 250216Z 16002KT 17/M10 A3008 RMK A01 T01671103  RH  015%=      5-min Rain = 0
KSB1 250217Z 16002KT 17/M10 A3008 RMK A01 T01671103  RH  015%=      5-min Rain = 0
KSB1 250218Z 15002KT 17/M10 A3008 RMK A01 T01671103  RH  015%=      5-min Rain = 0
KSB1 250219Z 15002KT 17/M10 A3008 RMK A01 T01671103  RH  015%=      5-min Rain = 0
KSB1 250220Z 16002KT 17/M10 A3008 RMK A01 T01671103  RH  015%=      5-min Rain = 0
KSB1 250221Z 16002KT 17/M10 A3008 RMK A01 T01661102  RH  015%=      5-min Rain = 0
KSB1 250222Z 18002KT 17/M10 A3008 RMK A01 T01651102  RH  015%=      5-min Rain = 0
KSB1 250223Z 19002KT 17/M10 A3008 RMK A01 T01651102  RH  015%=      5-min Rain = 0
KSB1 250224Z 20002KT 16/M10 A3008 RMK A01 T01641102  RH  015%=      5-min Rain = 0
KSB1 250225Z 20002KT 16/M10 A3008 RMK A01 T01641102  RH  015%=      5-min Rain = 0
KSB1 250226Z 21002KT 16/M10 A3008 RMK A01 T01631101  RH  015%=      5-min Rain = 0
KSB1 250227Z 21001KT 16/M10 A3008 RMK A01 T01621102  RH  015%=      5-min Rain = 0
KSB1 250228Z 20002KT 16/M10 A3008 RMK A01 T01621101  RH  015%=      5-min Rain = 0
KSB1 250229Z 19002KT 16/M10 A3008 RMK A01 T01621101  RH  015%=      5-min Rain = 0
KSB1 250230Z 20002KT 16/M10 A3009 RMK A01 T01611102  RH  015%=      5-min Rain = 0
KSB1 250231Z 20002KT 16/M10 A3009 RMK A01 T01611103  RH  015%=      5-min Rain = 0
KSB1 250232Z 20002KT 16/M10 A3009 RMK A01 T01611102  RH  015%=      5-min Rain = 0
KSB1 250233Z 20002KT 16/M10 A3009 RMK A01 T01611102  RH  015%=      5-min Rain = 0
KSB1 250234Z 19002KT 16/M10 A3009 RMK A01 T01611102  RH  015%=      5-min Rain = 0
KSB1 250235Z 19003KT 16/M10 A3009 RMK A01 T01611102  RH  015%=      5-min Rain = 0
KSB1 250236Z 19003KT 16/M10 A3009 RMK A01 T01611103  RH  015%=      5-min Rain = 0
KSB1 250237Z 18003KT 16/M10 A3009 RMK A01 T01611102  RH  015%=      5-min Rain = 0
KSB1 250238Z 18003KT 16/M10 A3009 RMK A01 T01601102  RH  015%=      5-min Rain = 0
KSB1 250239Z 17003KT 16/M10 A3009 RMK A01 T01591103  RH  016%=      5-min Rain = 0
KSB1 250240Z 17002KT 16/M10 A3009 RMK A01 T01581102  RH  016%=      5-min Rain = 0
KSB1 250241Z 17003KT 16/M10 A3009 RMK A01 T01571102  RH  016%=      5-min Rain = 0
KSB1 250242Z 17003KT 16/M10 A3009 RMK A01 T01571102  RH  016%=      5-min Rain = 0
KSB1 250243Z 17003KT 16/M10 A3009 RMK A01 T01561100  RH  016%=      5-min Rain = 0
KSB1 250244Z 17003KT 16/M10 A3009 RMK A01 T01551100  RH  016%=      5-min Rain = 0
KSB1 250245Z 17003KT 15/M10 A3009 RMK A01 T01541100  RH  016%=      5-min Rain = 0
KSB1 250246Z 17002KT 15/M10 A3009 RMK A01 T01541100  RH  016%=      5-min Rain = 0
KSB1 250247Z 17003KT 15/M10 A3009 RMK A01 T01531100  RH  016%=      5-min Rain = 0
KSB1 250248Z 17003KT 15/M10 A3009 RMK A01 T01531100  RH  017%=      5-min Rain = 0
KSB1 250249Z 16003KT 15/M10 A3009 RMK A01 T01521100  RH  017%=      5-min Rain = 0
KSB1 250250Z 16004KT 15/M10 A3009 RMK A01 T01511100  RH  017%=      5-min Rain = 0
KSB1 250251Z 16004KT 15/M10 A3009 RMK A01 T01511099  RH  017%=      5-min Rain = 0
KSB1 250252Z 17003KT 15/M10 A3009 RMK A01 T01501100  RH  017%=      5-min Rain = 0
KSB1 250253Z 18003KT 15/M10 A3009 RMK A01 T01501100  RH  017%=      5-min Rain = 0
KSB1 250254Z 19003KT 15/M10 A3009 RMK A01 T01501099  RH  017%=      5-min Rain = 0
KSB1 250255Z 19003KT 15/M10 A3009 RMK A01 T01491099  RH  017%=      5-min Rain = 0
KSB1 250256Z 19003KT 15/M10 A3009 RMK A01 T01481098  RH  017%=      5-min Rain = 0
KSB1 250257Z 19002KT 15/M10 A3009 RMK A01 T01481098  RH  017%=      5-min Rain = 0
KSB1 250258Z 20002KT 15/M10 A3009 RMK A01 T01481099  RH  017%=      5-min Rain = 0
KSB1 250259Z 19002KT 15/M10 A3009 RMK A01 T01481099  RH  017%=      5-min Rain = 0
KSB1 250300Z 20002KT 15/M10 A3009 RMK A01 T01491099  RH  017%=      5-min Rain = 0
KSB1 250301Z 20002KT 15/M10 A3009 RMK A01 T01491099  RH  017%=      5-min Rain = 0
KSB1 250302Z 20002KT 15/M10 A3009 RMK A01 T01501099  RH  017%=      5-min Rain = 0
KSB1 250303Z 19002KT 15/M10 A3009 RMK A01 T01501099  RH  017%=      5-min Rain = 0
KSB1 250304Z 19002KT 15/M10 A3009 RMK A01 T01501099  RH  017%=      5-min Rain = 0
KSB1 250305Z 19002KT 15/M10 A3009 RMK A01 T01501098  RH  017%=      5-min Rain = 0
KSB1 250306Z 19002KT 15/M10 A3009 RMK A01 T01501099  RH  017%=      5-min Rain = 0
KSB1 250307Z 19002KT 15/M10 A3009 RMK A01 T01511100  RH  017%=      5-min Rain = 0
KSB1 250308Z 18002KT 15/M10 A3009 RMK A01 T01521098  RH  017%=      5-min Rain = 0
KSB1 250309Z 19002KT 15/M10 A301 RMK A01 T01521099  RH  017%=      5-min Rain = 0
KSB1 250310Z 19002KT 15/M10 A301 RMK A01 T01521099  RH  017%=      5-min Rain = 0
KSB1 250311Z 19002KT 15/M10 A301 RMK A01 T01521099  RH  017%=      5-min Rain = 0
KSB1 250312Z 20002KT 15/M10 A301 RMK A01 T01521099  RH  017%=      5-min Rain = 0
KSB1 250313Z 19002KT 15/M10 A301 RMK A01 T01521099  RH  017%=      5-min Rain = 0
KSB1 250314Z 21002KT 15/M10 A301 RMK A01 T01521098  RH  017%=      5-min Rain = 0
KSB1 250315Z 22002KT 15/M10 A301 RMK A01 T01521098  RH  017%=      5-min Rain = 0
KSB1 250316Z 22003KT 15/M10 A301 RMK A01 T01521098  RH  017%=      5-min Rain = 0
KSB1 250317Z 23003KT 15/M10 A301 RMK A01 T01521098  RH  017%=      5-min Rain = 0
KSB1 250318Z 21003KT 15/M10 A301 RMK A01 T01521097  RH  017%=      5-min Rain = 0
KSB1 250319Z 21002KT 15/M10 A301 RMK A01 T01521098  RH  017%=      5-min Rain = 0
KSB1 250320Z 20002KT 15/M10 A301 RMK A01 T01521098  RH  017%=      5-min Rain = 0
KSB1 250321Z 19002KT 15/M10 A301 RMK A01 T01521099  RH  017%=      5-min Rain = 0
KSB1 250322Z 20002KT 15/M10 A301 RMK A01 T01521099  RH  017%=      5-min Rain = 0
KSB1 250323Z 21002KT 15/M10 A301 RMK A01 T01521099  RH  017%=      5-min Rain = 0
KSB1 250324Z 23003KT 15/M10 A301 RMK A01 T01521098  RH  017%=      5-min Rain = 0
KSB1 250325Z 24003KT 15/M10 A301 RMK A01 T01521098  RH  017%=      5-min Rain = 0
KSB1 250326Z 25004KT 15/M10 A301 RMK A01 T01501096  RH  017%=      5-min Rain = 0
KSB1 250327Z 26003KT 15/M10 A301 RMK A01 T01501095  RH  018%=      5-min Rain = 0
KSB1 250328Z 26003KT 15/M10 A301 RMK A01 T01491096  RH  017%=      5-min Rain = 0
KSB1 250329Z 26002KT 15/M10 A301 RMK A01 T01501096  RH  017%=      5-min Rain = 0
KSB1 250330Z 27002KT 15/M10 A301 RMK A01 T01521097  RH  017%=      5-min Rain = 0
KSB1 250331Z 25001KT 15/M10 A301 RMK A01 T01531098  RH  017%=      5-min Rain = 0
KSB1 250332Z 25001KT 15/M10 A301 RMK A01 T01541099  RH  017%=      5-min Rain = 0
KSB1 250333Z 24001KT 15/M10 A301 RMK A01 T01541099  RH  017%=      5-min Rain = 0
KSB1 250334Z 24001KT 16/M10 A301 RMK A01 T01551099  RH  017%=      5-min Rain = 0
KSB1 250335Z 21001KT 16/M10 A301 RMK A01 T01551099  RH  016%=      5-min Rain = 0
KSB1 250336Z 19001KT 16/M10 A301 RMK A01 T01561100  RH  016%=      5-min Rain = 0
KSB1 250337Z 16002KT 16/M10 A301 RMK A01 T01561099  RH  016%=      5-min Rain = 0
KSB1 250338Z 16002KT 16/M10 A301 RMK A01 T01561100  RH  016%=      5-min Rain = 0
KSB1 250339Z 16003KT 16/M10 A301 RMK A01 T01571099  RH  016%=      5-min Rain = 0
KSB1 250340Z 15003KT 16/M10 A301 RMK A01 T01571099  RH  016%=      5-min Rain = 0
KSB1 250341Z 17002KT 16/M10 A301 RMK A01 T01571099  RH  016%=      5-min Rain = 0
KSB1 250342Z 19002KT 16/M10 A301 RMK A01 T01571098  RH  016%=      5-min Rain = 0
KSB1 250343Z 20002KT 16/M10 A301 RMK A01 T01551098  RH  016%=      5-min Rain = 0
KSB1 250344Z 22002KT 15/M10 A3011 RMK A01 T01541097  RH  017%=      5-min Rain = 0
KSB1 250345Z 25002KT 15/M10 A3011 RMK A01 T01531096  RH  017%=      5-min Rain = 0
KSB1 250346Z 26002KT 15/M10 A3011 RMK A01 T01511096  RH  017%=      5-min Rain = 0
KSB1 250347Z 27001KT 15/M10 A301 RMK A01 T01511096  RH  017%=      5-min Rain = 0
KSB1 250348Z 27001KT 15/M10 A301 RMK A01 T01521095  RH  017%=      5-min Rain = 0
KSB1 250349Z 23001KT 15/M10 A301 RMK A01 T01521097  RH  017%=      5-min Rain = 0
KSB1 250350Z 00000KT 15/M10 A3011 RMK A01 T01531099  RH  017%=      5-min Rain = 0
KSB1 250351Z 00000KT 15/M10 A3011 RMK A01 T01541099  RH  017%=      5-min Rain = 0
KSB1 250352Z 00000KT 15/M10 A3011 RMK A01 T01541098  RH  017%=      5-min Rain = 0
KSB1 250353Z 00000KT 15/M10 A3011 RMK A01 T01541099  RH  016%=      5-min Rain = 0
KSB1 250354Z 00000KT 15/M10 A3011 RMK A01 T01541100  RH  016%=      5-min Rain = 0
KSB1 250355Z 00000KT 15/M10 A3011 RMK A01 T01541101  RH  016%=      5-min Rain = 0
KSB1 250356Z 00000KT 16/M10 A3011 RMK A01 T01551101  RH  016%=      5-min Rain = 0
KSB1 250357Z 00000KT 16/M10 A3011 RMK A01 T01551101  RH  016%=      5-min Rain = 0
KSB1 250358Z 00000KT 16/M10 A3011 RMK A01 T01551101  RH  016%=      5-min Rain = 0
KSB1 250359Z 00000KT 16/M10 A3011 RMK A01 T01551101  RH  016%=      5-min Rain = 0
KSB1 250400Z 10001KT 15/M10 A3011 RMK A01 T01541101  RH  016%=      5-min Rain = 0
KSB1 250401Z 06000KT 15/M10 A3011 RMK A01 T01541101  RH  016%=      5-min Rain = 0
KSB1 250402Z 00000KT 15/M10 A3011 RMK A01 T01541100  RH  016%=      5-min Rain = 0
KSB1 250403Z 00000KT 15/M10 A3011 RMK A01 T01541099  RH  016%=      5-min Rain = 0
KSB1 250404Z 17000KT 15/M10 A3011 RMK A01 T01541099  RH  016%=      5-min Rain = 0
KSB1 250405Z 20001KT 16/M10 A3011 RMK A01 T01551100  RH  016%=      5-min Rain = 0
KSB1 250406Z 21001KT 16/M10 A3011 RMK A01 T01551100  RH  016%=      5-min Rain = 0
KSB1 250407Z 20001KT 16/M10 A3011 RMK A01 T01551100  RH  016%=      5-min Rain = 0
KSB1 250408Z 20001KT 16/M10 A3011 RMK A01 T01561100  RH  016%=      5-min Rain = 0
KSB1 250409Z 20002KT 16/M10 A3011 RMK A01 T01571100  RH  016%=      5-min Rain = 0
KSB1 250410Z 19002KT 16/M10 A3011 RMK A01 T01571100  RH  016%=      5-min Rain = 0
KSB1 250411Z 19003KT 16/M10 A3011 RMK A01 T01571100  RH  016%=      5-min Rain = 0
KSB1 250412Z 18002KT 16/M10 A3011 RMK A01 T01561100  RH  016%=      5-min Rain = 0
KSB1 250413Z 17002KT 16/M10 A3011 RMK A01 T01561100  RH  016%=      5-min Rain = 0
KSB1 250414Z 18002KT 16/M10 A3011 RMK A01 T01561100  RH  016%=      5-min Rain = 0
KSB1 250415Z 20001KT 16/M10 A3011 RMK A01 T01561100  RH  016%=      5-min Rain = 0
KSB1 250416Z 21001KT 16/M10 A3011 RMK A01 T01551100  RH  016%=      5-min Rain = 0
KSB1 250417Z 26001KT 16/M10 A3011 RMK A01 T01551099  RH  016%=      5-min Rain = 0
KSB1 250418Z 26003KT 15/M10 A3011 RMK A01 T01541098  RH  017%=      5-min Rain = 0
KSB1 250419Z 25001KT 15/M10 A3011 RMK A01 T01531097  RH  017%=      5-min Rain = 0
KSB1 250420Z 26001KT 15/M10 A3011 RMK A01 T01531099  RH  017%=      5-min Rain = 0
KSB1 250421Z 24001KT 15/M10 A3011 RMK A01 T01541100  RH  016%=      5-min Rain = 0
KSB1 250422Z 21000KT 16/M10 A3011 RMK A01 T01551100  RH  016%=      5-min Rain = 0
KSB1 250423Z 18001KT 16/M10 A3011 RMK A01 T01551100  RH  016%=      5-min Rain = 0
KSB1 250424Z 20001KT 16/M10 A3011 RMK A01 T01561099  RH  016%=      5-min Rain = 0
KSB1 250425Z 25002KT 16/M10 A3011 RMK A01 T01561099  RH  016%=      5-min Rain = 0
KSB1 250426Z 24002KT 16/M10 A3011 RMK A01 T01561099  RH  016%=      5-min Rain = 0
KSB1 250427Z 21001KT 16/M10 A3011 RMK A01 T01561099  RH  016%=      5-min Rain = 0
KSB1 250428Z 19000KT 16/M10 A3011 RMK A01 T01561098  RH  016%=      5-min Rain = 0
KSB1 250429Z 00000KT 16/M10 A3011 RMK A01 T01551099  RH  016%=      5-min Rain = 0
KSB1 250430Z 00000KT 16/M10 A3011 RMK A01 T01551099  RH  016%=      5-min Rain = 0
KSB1 250431Z 00000KT 16/M10 A3011 RMK A01 T01551099  RH  017%=      5-min Rain = 0
KSB1 250432Z 02000KT 16/M10 A3011 RMK A01 T01551099  RH  017%=      5-min Rain = 0
KSB1 250433Z 02000KT 15/M10 A3011 RMK A01 T01541099  RH  017%=      5-min Rain = 0
KSB1 250434Z 33001KT 15/M10 A3011 RMK A01 T01531095  RH  017%=      5-min Rain = 0
KSB1 250435Z 00000KT 15/M10 A3011 RMK A01 T01521097  RH  017%=      5-min Rain = 0
KSB1 250436Z 00000KT 15/M10 A3011 RMK A01 T01511099  RH  017%=      5-min Rain = 0
KSB1 250437Z 00000KT 15/M10 A3011 RMK A01 T01501099  RH  017%=      5-min Rain = 0
KSB1 250438Z 00000KT 15/M10 A3011 RMK A01 T01501098  RH  017%=      5-min Rain = 0
KSB1 250439Z 09000KT 15/M10 A3011 RMK A01 T01501098  RH  017%=      5-min Rain = 0
KSB1 250440Z 06001KT 15/M10 A3011 RMK A01 T01511098  RH  017%=      5-min Rain = 0
KSB1 250441Z 05001KT 15/M10 A3011 RMK A01 T01511098  RH  017%=      5-min Rain = 0
KSB1 250442Z 05000KT 15/M10 A3011 RMK A01 T01511098  RH  017%=      5-min Rain = 0
KSB1 250443Z 09001KT 15/M10 A3011 RMK A01 T01511098  RH  017%=      5-min Rain = 0
KSB1 250444Z 06000KT 15/M10 A3011 RMK A01 T01511098  RH  017%=      5-min Rain = 0
KSB1 250445Z 04001KT 15/M10 A3011 RMK A01 T01511098  RH  017%=      5-min Rain = 0
KSB1 250446Z 03001KT 15/M10 A3011 RMK A01 T01511097  RH  017%=      5-min Rain = 0
KSB1 250447Z 02001KT 15/M10 A3011 RMK A01 T01511097  RH  017%=      5-min Rain = 0
KSB1 250448Z 02001KT 15/M10 A3011 RMK A01 T01511097  RH  017%=      5-min Rain = 0
KSB1 250449Z 06000KT 15/M10 A3012 RMK A01 T01511097  RH  017%=      5-min Rain = 0
KSB1 250450Z 00000KT 15/M10 A3012 RMK A01 T01501097  RH  017%=      5-min Rain = 0
KSB1 250451Z 00000KT 15/M10 A3012 RMK A01 T01501097  RH  017%=      5-min Rain = 0
KSB1 250452Z 00000KT 15/M10 A3012 RMK A01 T01501097  RH  017%=      5-min Rain = 0
KSB1 250453Z 33000KT 15/M10 A3012 RMK A01 T01501097  RH  017%=      5-min Rain = 0
KSB1 250454Z 33000KT 15/M10 A3012 RMK A01 T01511097  RH  017%=      5-min Rain = 0
KSB1 250455Z 00000KT 15/M10 A3012 RMK A01 T01521097  RH  017%=      5-min Rain = 0
KSB1 250456Z 00000KT 15/M10 A3012 RMK A01 T01531097  RH  017%=      5-min Rain = 0
KSB1 250457Z 20000KT 15/M10 A3012 RMK A01 T01531096  RH  017%=      5-min Rain = 0
KSB1 250458Z 17001KT 15/M10 A3012 RMK A01 T01531096  RH  017%=      5-min Rain = 0
KSB1 250459Z 16001KT 15/M10 A3012 RMK A01 T01531095  RH  017%=      5-min Rain = 0
KSB1 250500Z 18001KT 15/M10 A3012 RMK A01 T01531095  RH  017%=      5-min Rain = 0
KSB1 250501Z 19001KT 15/M10 A3012 RMK A01 T01531096  RH  017%=      5-min Rain = 0
KSB1 250502Z 18002KT 15/M10 A3012 RMK A01 T01521096  RH  017%=      5-min Rain = 0
KSB1 250503Z 19002KT 15/M10 A3012 RMK A01 T01511097  RH  017%=      5-min Rain = 0
KSB1 250504Z 18002KT 15/M10 A3012 RMK A01 T01491097  RH  017%=      5-min Rain = 0
KSB1 250505Z 18001KT 15/M10 A3012 RMK A01 T01481097  RH  017%=      5-min Rain = 0
KSB1 250506Z 20001KT 15/M10 A3012 RMK A01 T01471097  RH  018%=      5-min Rain = 0
KSB1 250507Z 21001KT 15/M10 A3012 RMK A01 T01471097  RH  018%=      5-min Rain = 0
KSB1 250508Z 20001KT 15/M10 A3012 RMK A01 T01461097  RH  018%=      5-min Rain = 0
KSB1 250509Z 21002KT 15/M10 A3012 RMK A01 T01461097  RH  018%=      5-min Rain = 0
KSB1 250510Z 22002KT 15/M10 A3012 RMK A01 T01461097  RH  018%=      5-min Rain = 0
KSB1 250511Z 20002KT 15/M10 A3012 RMK A01 T01461097  RH  018%=      5-min Rain = 0
KSB1 250512Z 20002KT 15/M10 A3012 RMK A01 T01461097  RH  018%=      5-min Rain = 0
KSB1 250513Z 20002KT 15/M10 A3012 RMK A01 T01481096  RH  018%=      5-min Rain = 0
KSB1 250514Z 20003KT 15/M10 A3012 RMK A01 T01471096  RH  018%=      5-min Rain = 0
KSB1 250515Z 21003KT 15/M10 A3012 RMK A01 T01471097  RH  018%=      5-min Rain = 0
KSB1 250516Z 21003KT 15/M10 A3012 RMK A01 T01471097  RH  018%=      5-min Rain = 0
KSB1 250517Z 21002KT 15/M10 A3012 RMK A01 T01461097  RH  018%=      5-min Rain = 0
KSB1 250518Z 21002KT 15/M10 A3012 RMK A01 T01451096  RH  018%=      5-min Rain = 0
KSB1 250519Z 20002KT 14/M10 A3012 RMK A01 T01431096  RH  018%=      5-min Rain = 0
KSB1 250520Z 20003KT 14/M10 A3012 RMK A01 T01411096  RH  018%=      5-min Rain = 0
KSB1 250521Z 19003KT 14/M10 A3012 RMK A01 T01401096  RH  018%=      5-min Rain = 0
KSB1 250522Z 19003KT 14/M10 A3012 RMK A01 T01401095  RH  019%=      5-min Rain = 0
KSB1 250523Z 19003KT 14/M10 A3012 RMK A01 T01401095  RH  019%=      5-min Rain = 0
KSB1 250524Z 19003KT 14/M09 A3012 RMK A01 T01401094  RH  019%=      5-min Rain = 0
KSB1 250525Z 20003KT 14/M09 A3012 RMK A01 T01391094  RH  019%=      5-min Rain = 0
KSB1 250526Z 20003KT 14/M09 A3012 RMK A01 T01371093  RH  019%=      5-min Rain = 0
KSB1 250527Z 21003KT 14/M09 A3012 RMK A01 T01361092  RH  020%=      5-min Rain = 0
KSB1 250528Z 22003KT 14/M09 A3012 RMK A01 T01351091  RH  020%=      5-min Rain = 0
KSB1 250529Z 21003KT 14/M09 A3012 RMK A01 T01351090  RH  020%=      5-min Rain = 0
KSB1 250530Z 22003KT 13/M09 A3012 RMK A01 T01341091  RH  020%=      5-min Rain = 0
KSB1 250531Z 22003KT 14/M09 A3012 RMK A01 T01351091  RH  020%=      5-min Rain = 0
KSB1 250532Z 22003KT 14/M09 A3012 RMK A01 T01361090  RH  020%=      5-min Rain = 0
KSB1 250533Z 22003KT 14/M09 A3011 RMK A01 T01361091  RH  020%=      5-min Rain = 0
KSB1 250534Z 22003KT 14/M09 A3011 RMK A01 T01371091  RH  020%=      5-min Rain = 0
KSB1 250535Z 21003KT 14/M09 A3011 RMK A01 T01371090  RH  020%=      5-min Rain = 0
KSB1 250536Z 21002KT 14/M09 A3011 RMK A01 T01361090  RH  020%=      5-min Rain = 0
KSB1 250537Z 23003KT 14/M09 A3011 RMK A01 T01361091  RH  020%=      5-min Rain = 0
KSB1 250538Z 23002KT 14/M09 A3011 RMK A01 T01371091  RH  020%=      5-min Rain = 0
KSB1 250539Z 24002KT 14/M09 A3011 RMK A01 T01381091  RH  020%=      5-min Rain = 0
KSB1 250540Z 24002KT 14/M09 A3011 RMK A01 T01381091  RH  019%=      5-min Rain = 0
KSB1 250541Z 25003KT 14/M09 A3011 RMK A01 T01391091  RH  020%=      5-min Rain = 0
KSB1 250542Z 26003KT 14/M09 A3011 RMK A01 T01391090  RH  020%=      5-min Rain = 0
KSB1 250543Z 26003KT 14/M09 A3011 RMK A01 T01391090  RH  019%=      5-min Rain = 0
KSB1 250544Z 26003KT 14/M09 A3011 RMK A01 T01401090  RH  019%=      5-min Rain = 0
KSB1 250545Z 26003KT 14/M09 A3011 RMK A01 T01401090  RH  019%=      5-min Rain = 0
KSB1 250546Z 25003KT 14/M09 A3011 RMK A01 T01411090  RH  019%=      5-min Rain = 0
KSB1 250547Z 25003KT 14/M09 A3011 RMK A01 T01421090  RH  019%=      5-min Rain = 0
KSB1 250548Z 25003KT 14/M09 A3011 RMK A01 T01421090  RH  019%=      5-min Rain = 0
KSB1 250549Z 24003KT 14/M09 A3011 RMK A01 T01431092  RH  019%=      5-min Rain = 0
KSB1 250550Z 24003KT 14/M09 A3011 RMK A01 T01441091  RH  019%=      5-min Rain = 0
KSB1 250551Z 25003KT 14/M09 A3011 RMK A01 T01431089  RH  019%=      5-min Rain = 0
KSB1 250552Z 26003KT 14/M09 A3011 RMK A01 T01411091  RH  019%=      5-min Rain = 0
KSB1 250553Z 26002KT 14/M09 A3011 RMK A01 T01411090  RH  019%=      5-min Rain = 0
KSB1 250554Z 26002KT 14/M09 A3011 RMK A01 T01411090  RH  019%=      5-min Rain = 0
KSB1 250555Z 26001KT 14/M09 A3011 RMK A01 T01411090  RH  019%=      5-min Rain = 0
KSB1 250556Z 25000KT 14/M09 A3011 RMK A01 T01411091  RH  019%=      5-min Rain = 0
KSB1 250557Z 00000KT 14/M09 A3011 RMK A01 T01411091  RH  019%=      5-min Rain = 0
KSB1 250558Z 00000KT 14/M09 A3011 RMK A01 T01421091  RH  019%=      5-min Rain = 0
KSB1 250559Z 25000KT 14/M09 A3011 RMK A01 T01421091  RH  019%=      5-min Rain = 0

Page generated in 0.081 seconds.